<?xml version="1.0" encoding="UTF-8" standalone="no" ?>
<gpx xmlns="http://www.topografix.com/GPX/1/1" xmlns:xsi="http://www.w3.org/2001/XMLSchema-instance" xsi:schemaLocation="http://www.topografix.com/GPX/1/1 http://www.topografix.com/GPX/1/1/gpx.xsd" version="1.1" creator="VisuGPX - https://www.visugpx.com">
  <metadata>
    <name>Lac du Moulinet</name>
    <desc><![CDATA[2019-05 - Lac du Moulinet

[b]album[/b] : [url]https://photos.app.goo.gl/5iZSMh7Gh66EZ4v29[/url]
[img]https://blogger.googleusercontent.com/img/b/R29vZ2xl/AVvXsEjxm-OgxszzBkcNYlqgBeavfHgQ2KNJbuHUVrQFjonUZHXdmlGuGehtC01rigDZxEmy_j28wEaNgM-hZR9yiagCB3YEFeFFOGWRKsG_e8m1l2UfxbkhQUPB6smfxw89SDvUR3U6BPMmAClURGQJ9JPCiXgiIYAS4ZYA76TM1nUYXBHCoSo4kApLu4XJkVFN/s600/aubrac.JPG[/img]
[b]Idées de randonnées dans la même région[/b]
Parcours : [url]https://www.visugpx.com/membres/24856/montagne/massif-central/[/url]
Photos : [url]https://jcvertygo.blogspot.com/p/massif-central.html[/url]]]></desc>
  </metadata>
  <trk>
    <name><![CDATA[SityTrail - moulinet]]></name>
    <extensions>
      <line xmlns="http://www.topografix.com/GPX/gpx_style/0/2">
        <color>0000FF</color>
        <width>4</width>
      </line>
    </extensions>
    <trkseg>
      <trkpt lat="44.64485" lon="3.23092">
        <ele>1080</ele>
        <time>2019-05-29T12:38:51.555Z</time>
      </trkpt>
      <trkpt lat="44.64486" lon="3.23092">
        <ele>1080</ele>
        <time>2019-05-29T12:38:52.563Z</time>
      </trkpt>
      <trkpt lat="44.64492" lon="3.23092">
        <ele>1080</ele>
        <time>2019-05-29T12:38:57.559Z</time>
      </trkpt>
      <trkpt lat="44.64496" lon="3.23094">
        <ele>1080</ele>
        <time>2019-05-29T12:39:02.560Z</time>
      </trkpt>
      <trkpt lat="44.645" lon="3.23096">
        <ele>1080</ele>
        <time>2019-05-29T12:39:07.554Z</time>
      </trkpt>
      <trkpt lat="44.64503" lon="3.23099">
        <ele>1080</ele>
        <time>2019-05-29T12:39:11.567Z</time>
      </trkpt>
      <trkpt lat="44.64507" lon="3.23103">
        <ele>1080</ele>
        <time>2019-05-29T12:39:16.570Z</time>
      </trkpt>
      <trkpt lat="44.64512" lon="3.23107">
        <ele>1080</ele>
        <time>2019-05-29T12:39:21.569Z</time>
      </trkpt>
      <trkpt lat="44.64516" lon="3.23112">
        <ele>1083</ele>
        <time>2019-05-29T12:39:26.570Z</time>
      </trkpt>
      <trkpt lat="44.6452" lon="3.23116">
        <ele>1083</ele>
        <time>2019-05-29T12:39:30.594Z</time>
      </trkpt>
      <trkpt lat="44.64524" lon="3.2312">
        <ele>1083</ele>
        <time>2019-05-29T12:39:35.565Z</time>
      </trkpt>
      <trkpt lat="44.64527" lon="3.23126">
        <ele>1082</ele>
        <time>2019-05-29T12:39:40.564Z</time>
      </trkpt>
      <trkpt lat="44.64531" lon="3.23129">
        <ele>1082</ele>
        <time>2019-05-29T12:39:44.569Z</time>
      </trkpt>
      <trkpt lat="44.64537" lon="3.2313">
        <ele>1082</ele>
        <time>2019-05-29T12:39:49.544Z</time>
      </trkpt>
      <trkpt lat="44.64541" lon="3.23132">
        <ele>1082</ele>
        <time>2019-05-29T12:39:53.596Z</time>
      </trkpt>
      <trkpt lat="44.64545" lon="3.23135">
        <ele>1085</ele>
        <time>2019-05-29T12:39:58.564Z</time>
      </trkpt>
      <trkpt lat="44.64547" lon="3.23138">
        <ele>1085</ele>
        <time>2019-05-29T12:40:02.562Z</time>
      </trkpt>
      <trkpt lat="44.64553" lon="3.23138">
        <ele>1085</ele>
        <time>2019-05-29T12:40:07.565Z</time>
      </trkpt>
      <trkpt lat="44.64557" lon="3.23138">
        <ele>1085</ele>
        <time>2019-05-29T12:40:12.566Z</time>
      </trkpt>
      <trkpt lat="44.64561" lon="3.23141">
        <ele>1085</ele>
        <time>2019-05-29T12:40:17.562Z</time>
      </trkpt>
      <trkpt lat="44.64566" lon="3.23141">
        <ele>1085</ele>
        <time>2019-05-29T12:40:22.564Z</time>
      </trkpt>
      <trkpt lat="44.64572" lon="3.23141">
        <ele>1087</ele>
        <time>2019-05-29T12:40:26.565Z</time>
      </trkpt>
      <trkpt lat="44.64577" lon="3.23141">
        <ele>1087</ele>
        <time>2019-05-29T12:40:31.570Z</time>
      </trkpt>
      <trkpt lat="44.64582" lon="3.23141">
        <ele>1087</ele>
        <time>2019-05-29T12:40:36.567Z</time>
      </trkpt>
      <trkpt lat="44.64588" lon="3.2314">
        <ele>1087</ele>
        <time>2019-05-29T12:40:41.599Z</time>
      </trkpt>
      <trkpt lat="44.64593" lon="3.23141">
        <ele>1087</ele>
        <time>2019-05-29T12:40:46.569Z</time>
      </trkpt>
      <trkpt lat="44.64597" lon="3.23141">
        <ele>1091</ele>
        <time>2019-05-29T12:40:51.565Z</time>
      </trkpt>
      <trkpt lat="44.64604" lon="3.23142">
        <ele>1091</ele>
        <time>2019-05-29T12:40:56.578Z</time>
      </trkpt>
      <trkpt lat="44.64608" lon="3.23144">
        <ele>1091</ele>
        <time>2019-05-29T12:41:01.567Z</time>
      </trkpt>
      <trkpt lat="44.64608" lon="3.23144">
        <ele>1091</ele>
        <time>2019-05-29T12:41:05.589Z</time>
      </trkpt>
      <trkpt lat="44.64612" lon="3.2314">
        <ele>1091</ele>
        <time>2019-05-29T12:41:10.563Z</time>
      </trkpt>
      <trkpt lat="44.64615" lon="3.23139">
        <ele>1091</ele>
        <time>2019-05-29T12:41:14.595Z</time>
      </trkpt>
      <trkpt lat="44.64619" lon="3.23138">
        <ele>1091</ele>
        <time>2019-05-29T12:41:19.559Z</time>
      </trkpt>
      <trkpt lat="44.64623" lon="3.23136">
        <ele>1091</ele>
        <time>2019-05-29T12:41:23.564Z</time>
      </trkpt>
      <trkpt lat="44.64627" lon="3.23137">
        <ele>1092</ele>
        <time>2019-05-29T12:41:28.563Z</time>
      </trkpt>
      <trkpt lat="44.64634" lon="3.23136">
        <ele>1092</ele>
        <time>2019-05-29T12:41:33.578Z</time>
      </trkpt>
      <trkpt lat="44.64638" lon="3.23132">
        <ele>1092</ele>
        <time>2019-05-29T12:41:38.569Z</time>
      </trkpt>
      <trkpt lat="44.64653" lon="3.2313">
        <ele>1092</ele>
        <time>2019-05-29T12:41:56.599Z</time>
      </trkpt>
      <trkpt lat="44.64657" lon="3.23126">
        <ele>1090</ele>
        <time>2019-05-29T12:42:01.574Z</time>
      </trkpt>
      <trkpt lat="44.64661" lon="3.23127">
        <ele>1090</ele>
        <time>2019-05-29T12:42:05.594Z</time>
      </trkpt>
      <trkpt lat="44.64665" lon="3.23126">
        <ele>1090</ele>
        <time>2019-05-29T12:42:09.598Z</time>
      </trkpt>
      <trkpt lat="44.64671" lon="3.23124">
        <ele>1094</ele>
        <time>2019-05-29T12:42:14.569Z</time>
      </trkpt>
      <trkpt lat="44.64677" lon="3.23123">
        <ele>1094</ele>
        <time>2019-05-29T12:42:19.599Z</time>
      </trkpt>
      <trkpt lat="44.64682" lon="3.23123">
        <ele>1094</ele>
        <time>2019-05-29T12:42:24.567Z</time>
      </trkpt>
      <trkpt lat="44.64687" lon="3.23124">
        <ele>1094</ele>
        <time>2019-05-29T12:42:29.565Z</time>
      </trkpt>
      <trkpt lat="44.64692" lon="3.23124">
        <ele>1094</ele>
        <time>2019-05-29T12:42:34.562Z</time>
      </trkpt>
      <trkpt lat="44.64697" lon="3.23122">
        <ele>1094</ele>
        <time>2019-05-29T12:42:39.563Z</time>
      </trkpt>
      <trkpt lat="44.64701" lon="3.23121">
        <ele>1094</ele>
        <time>2019-05-29T12:42:44.563Z</time>
      </trkpt>
      <trkpt lat="44.64705" lon="3.2312">
        <ele>1094</ele>
        <time>2019-05-29T12:42:48.596Z</time>
      </trkpt>
      <trkpt lat="44.6471" lon="3.23118">
        <ele>1094</ele>
        <time>2019-05-29T12:42:53.568Z</time>
      </trkpt>
      <trkpt lat="44.64715" lon="3.23119">
        <ele>1094</ele>
        <time>2019-05-29T12:42:58.568Z</time>
      </trkpt>
      <trkpt lat="44.6472" lon="3.23119">
        <ele>1094</ele>
        <time>2019-05-29T12:43:03.560Z</time>
      </trkpt>
      <trkpt lat="44.64724" lon="3.23118">
        <ele>1094</ele>
        <time>2019-05-29T12:43:07.568Z</time>
      </trkpt>
      <trkpt lat="44.64728" lon="3.23118">
        <ele>1094</ele>
        <time>2019-05-29T12:43:12.572Z</time>
      </trkpt>
      <trkpt lat="44.64731" lon="3.23118">
        <ele>1094</ele>
        <time>2019-05-29T12:43:16.603Z</time>
      </trkpt>
      <trkpt lat="44.64737" lon="3.23118">
        <ele>1094</ele>
        <time>2019-05-29T12:43:21.569Z</time>
      </trkpt>
      <trkpt lat="44.64741" lon="3.23117">
        <ele>1094</ele>
        <time>2019-05-29T12:43:25.599Z</time>
      </trkpt>
      <trkpt lat="44.64746" lon="3.23116">
        <ele>1094</ele>
        <time>2019-05-29T12:43:30.566Z</time>
      </trkpt>
      <trkpt lat="44.64749" lon="3.23118">
        <ele>1094</ele>
        <time>2019-05-29T12:43:35.567Z</time>
      </trkpt>
      <trkpt lat="44.64752" lon="3.23116">
        <ele>1094</ele>
        <time>2019-05-29T12:43:39.568Z</time>
      </trkpt>
      <trkpt lat="44.64756" lon="3.23117">
        <ele>1094</ele>
        <time>2019-05-29T12:43:44.568Z</time>
      </trkpt>
      <trkpt lat="44.64762" lon="3.23117">
        <ele>1094</ele>
        <time>2019-05-29T12:43:49.578Z</time>
      </trkpt>
      <trkpt lat="44.64766" lon="3.23115">
        <ele>1095</ele>
        <time>2019-05-29T12:43:53.599Z</time>
      </trkpt>
      <trkpt lat="44.64771" lon="3.23117">
        <ele>1095</ele>
        <time>2019-05-29T12:43:58.567Z</time>
      </trkpt>
      <trkpt lat="44.64777" lon="3.23121">
        <ele>1095</ele>
        <time>2019-05-29T12:44:03.567Z</time>
      </trkpt>
      <trkpt lat="44.64782" lon="3.23119">
        <ele>1095</ele>
        <time>2019-05-29T12:44:07.605Z</time>
      </trkpt>
      <trkpt lat="44.64789" lon="3.2312">
        <ele>1095</ele>
        <time>2019-05-29T12:44:12.567Z</time>
      </trkpt>
      <trkpt lat="44.64795" lon="3.23119">
        <ele>1095</ele>
        <time>2019-05-29T12:44:16.568Z</time>
      </trkpt>
      <trkpt lat="44.648" lon="3.2312">
        <ele>1095</ele>
        <time>2019-05-29T12:44:21.563Z</time>
      </trkpt>
      <trkpt lat="44.64804" lon="3.23119">
        <ele>1095</ele>
        <time>2019-05-29T12:44:25.565Z</time>
      </trkpt>
      <trkpt lat="44.6481" lon="3.23117">
        <ele>1095</ele>
        <time>2019-05-29T12:44:30.572Z</time>
      </trkpt>
      <trkpt lat="44.64814" lon="3.23115">
        <ele>1095</ele>
        <time>2019-05-29T12:44:35.566Z</time>
      </trkpt>
      <trkpt lat="44.64817" lon="3.23114">
        <ele>1095</ele>
        <time>2019-05-29T12:44:39.575Z</time>
      </trkpt>
      <trkpt lat="44.64822" lon="3.23114">
        <ele>1096</ele>
        <time>2019-05-29T12:44:44.570Z</time>
      </trkpt>
      <trkpt lat="44.64826" lon="3.23111">
        <ele>1096</ele>
        <time>2019-05-29T12:44:49.563Z</time>
      </trkpt>
      <trkpt lat="44.6483" lon="3.23109">
        <ele>1096</ele>
        <time>2019-05-29T12:44:53.567Z</time>
      </trkpt>
      <trkpt lat="44.64833" lon="3.23108">
        <ele>1096</ele>
        <time>2019-05-29T12:44:57.567Z</time>
      </trkpt>
      <trkpt lat="44.64838" lon="3.23105">
        <ele>1096</ele>
        <time>2019-05-29T12:45:02.568Z</time>
      </trkpt>
      <trkpt lat="44.64843" lon="3.23102">
        <ele>1096</ele>
        <time>2019-05-29T12:45:07.574Z</time>
      </trkpt>
      <trkpt lat="44.64846" lon="3.231">
        <ele>1096</ele>
        <time>2019-05-29T12:45:11.598Z</time>
      </trkpt>
      <trkpt lat="44.64848" lon="3.231">
        <ele>1098</ele>
        <time>2019-05-29T12:45:16.569Z</time>
      </trkpt>
      <trkpt lat="44.64853" lon="3.23099">
        <ele>1098</ele>
        <time>2019-05-29T12:45:21.568Z</time>
      </trkpt>
      <trkpt lat="44.64858" lon="3.23096">
        <ele>1101</ele>
        <time>2019-05-29T12:45:26.563Z</time>
      </trkpt>
      <trkpt lat="44.64865" lon="3.23093">
        <ele>1101</ele>
        <time>2019-05-29T12:45:30.570Z</time>
      </trkpt>
      <trkpt lat="44.6487" lon="3.2309">
        <ele>1101</ele>
        <time>2019-05-29T12:45:34.599Z</time>
      </trkpt>
      <trkpt lat="44.64876" lon="3.23087">
        <ele>1100</ele>
        <time>2019-05-29T12:45:39.567Z</time>
      </trkpt>
      <trkpt lat="44.6488" lon="3.23086">
        <ele>1100</ele>
        <time>2019-05-29T12:45:44.570Z</time>
      </trkpt>
      <trkpt lat="44.64884" lon="3.23083">
        <ele>1100</ele>
        <time>2019-05-29T12:45:49.600Z</time>
      </trkpt>
      <trkpt lat="44.64888" lon="3.23078">
        <ele>1100</ele>
        <time>2019-05-29T12:45:54.598Z</time>
      </trkpt>
      <trkpt lat="44.64892" lon="3.23074">
        <ele>1100</ele>
        <time>2019-05-29T12:45:59.563Z</time>
      </trkpt>
      <trkpt lat="44.64897" lon="3.23072">
        <ele>1100</ele>
        <time>2019-05-29T12:46:03.566Z</time>
      </trkpt>
      <trkpt lat="44.64902" lon="3.2307">
        <ele>1100</ele>
        <time>2019-05-29T12:46:08.599Z</time>
      </trkpt>
      <trkpt lat="44.64907" lon="3.23064">
        <ele>1100</ele>
        <time>2019-05-29T12:46:13.567Z</time>
      </trkpt>
      <trkpt lat="44.64913" lon="3.23061">
        <ele>1100</ele>
        <time>2019-05-29T12:46:18.567Z</time>
      </trkpt>
      <trkpt lat="44.64917" lon="3.23061">
        <ele>1100</ele>
        <time>2019-05-29T12:46:22.563Z</time>
      </trkpt>
      <trkpt lat="44.6492" lon="3.2306">
        <ele>1100</ele>
        <time>2019-05-29T12:46:27.570Z</time>
      </trkpt>
      <trkpt lat="44.64925" lon="3.23059">
        <ele>1100</ele>
        <time>2019-05-29T12:46:32.569Z</time>
      </trkpt>
      <trkpt lat="44.6493" lon="3.23056">
        <ele>1100</ele>
        <time>2019-05-29T12:46:37.565Z</time>
      </trkpt>
      <trkpt lat="44.64935" lon="3.23052">
        <ele>1100</ele>
        <time>2019-05-29T12:46:42.566Z</time>
      </trkpt>
      <trkpt lat="44.6494" lon="3.23049">
        <ele>1100</ele>
        <time>2019-05-29T12:46:47.568Z</time>
      </trkpt>
      <trkpt lat="44.64944" lon="3.23048">
        <ele>1100</ele>
        <time>2019-05-29T12:46:51.569Z</time>
      </trkpt>
      <trkpt lat="44.64948" lon="3.23043">
        <ele>1100</ele>
        <time>2019-05-29T12:46:56.569Z</time>
      </trkpt>
      <trkpt lat="44.6495" lon="3.23041">
        <ele>1100</ele>
        <time>2019-05-29T12:47:01.564Z</time>
      </trkpt>
      <trkpt lat="44.64955" lon="3.23041">
        <ele>1100</ele>
        <time>2019-05-29T12:47:06.563Z</time>
      </trkpt>
      <trkpt lat="44.64959" lon="3.23037">
        <ele>1102</ele>
        <time>2019-05-29T12:47:11.554Z</time>
      </trkpt>
      <trkpt lat="44.64959" lon="3.23037">
        <ele>1102</ele>
        <time>2019-05-29T12:47:15.586Z</time>
      </trkpt>
      <trkpt lat="44.64963" lon="3.23032">
        <ele>1102</ele>
        <time>2019-05-29T12:47:20.586Z</time>
      </trkpt>
      <trkpt lat="44.64967" lon="3.2303">
        <ele>1102</ele>
        <time>2019-05-29T12:47:25.564Z</time>
      </trkpt>
      <trkpt lat="44.6497" lon="3.23028">
        <ele>1102</ele>
        <time>2019-05-29T12:47:30.561Z</time>
      </trkpt>
      <trkpt lat="44.64976" lon="3.23028">
        <ele>1102</ele>
        <time>2019-05-29T12:47:35.563Z</time>
      </trkpt>
      <trkpt lat="44.6498" lon="3.23025">
        <ele>1102</ele>
        <time>2019-05-29T12:47:39.563Z</time>
      </trkpt>
      <trkpt lat="44.64984" lon="3.23023">
        <ele>1102</ele>
        <time>2019-05-29T12:47:43.594Z</time>
      </trkpt>
      <trkpt lat="44.64989" lon="3.23019">
        <ele>1102</ele>
        <time>2019-05-29T12:47:48.569Z</time>
      </trkpt>
      <trkpt lat="44.64992" lon="3.23019">
        <ele>1102</ele>
        <time>2019-05-29T12:47:53.564Z</time>
      </trkpt>
      <trkpt lat="44.64997" lon="3.23017">
        <ele>1102</ele>
        <time>2019-05-29T12:47:58.568Z</time>
      </trkpt>
      <trkpt lat="44.65002" lon="3.23015">
        <ele>1102</ele>
        <time>2019-05-29T12:48:03.568Z</time>
      </trkpt>
      <trkpt lat="44.65005" lon="3.23014">
        <ele>1102</ele>
        <time>2019-05-29T12:48:07.597Z</time>
      </trkpt>
      <trkpt lat="44.65011" lon="3.2301">
        <ele>1102</ele>
        <time>2019-05-29T12:48:12.581Z</time>
      </trkpt>
      <trkpt lat="44.65013" lon="3.2301">
        <ele>1102</ele>
        <time>2019-05-29T12:48:16.569Z</time>
      </trkpt>
      <trkpt lat="44.65017" lon="3.2301">
        <ele>1103</ele>
        <time>2019-05-29T12:48:21.563Z</time>
      </trkpt>
      <trkpt lat="44.65023" lon="3.23006">
        <ele>1103</ele>
        <time>2019-05-29T12:48:25.596Z</time>
      </trkpt>
      <trkpt lat="44.65028" lon="3.23005">
        <ele>1103</ele>
        <time>2019-05-29T12:48:30.599Z</time>
      </trkpt>
      <trkpt lat="44.65033" lon="3.23002">
        <ele>1103</ele>
        <time>2019-05-29T12:48:35.598Z</time>
      </trkpt>
      <trkpt lat="44.65037" lon="3.22999">
        <ele>1103</ele>
        <time>2019-05-29T12:48:40.598Z</time>
      </trkpt>
      <trkpt lat="44.65042" lon="3.22997">
        <ele>1105</ele>
        <time>2019-05-29T12:48:45.591Z</time>
      </trkpt>
      <trkpt lat="44.65048" lon="3.22994">
        <ele>1105</ele>
        <time>2019-05-29T12:48:50.576Z</time>
      </trkpt>
      <trkpt lat="44.65053" lon="3.22994">
        <ele>1105</ele>
        <time>2019-05-29T12:48:55.563Z</time>
      </trkpt>
      <trkpt lat="44.65056" lon="3.22993">
        <ele>1105</ele>
        <time>2019-05-29T12:49:00.567Z</time>
      </trkpt>
      <trkpt lat="44.6506" lon="3.2299">
        <ele>1105</ele>
        <time>2019-05-29T12:49:05.569Z</time>
      </trkpt>
      <trkpt lat="44.65065" lon="3.22986">
        <ele>1104</ele>
        <time>2019-05-29T12:49:10.560Z</time>
      </trkpt>
      <trkpt lat="44.65068" lon="3.22985">
        <ele>1104</ele>
        <time>2019-05-29T12:49:14.579Z</time>
      </trkpt>
      <trkpt lat="44.65072" lon="3.22982">
        <ele>1106</ele>
        <time>2019-05-29T12:49:19.578Z</time>
      </trkpt>
      <trkpt lat="44.65076" lon="3.22981">
        <ele>1106</ele>
        <time>2019-05-29T12:49:24.548Z</time>
      </trkpt>
      <trkpt lat="44.65079" lon="3.2298">
        <ele>1106</ele>
        <time>2019-05-29T12:49:28.567Z</time>
      </trkpt>
      <trkpt lat="44.65083" lon="3.22977">
        <ele>1106</ele>
        <time>2019-05-29T12:49:32.577Z</time>
      </trkpt>
      <trkpt lat="44.65088" lon="3.22975">
        <ele>1106</ele>
        <time>2019-05-29T12:49:37.567Z</time>
      </trkpt>
      <trkpt lat="44.65092" lon="3.22973">
        <ele>1106</ele>
        <time>2019-05-29T12:49:42.601Z</time>
      </trkpt>
      <trkpt lat="44.65096" lon="3.22972">
        <ele>1106</ele>
        <time>2019-05-29T12:49:47.568Z</time>
      </trkpt>
      <trkpt lat="44.65101" lon="3.22965">
        <ele>1109</ele>
        <time>2019-05-29T12:49:52.570Z</time>
      </trkpt>
      <trkpt lat="44.65106" lon="3.22961">
        <ele>1109</ele>
        <time>2019-05-29T12:49:57.582Z</time>
      </trkpt>
      <trkpt lat="44.65109" lon="3.22959">
        <ele>1109</ele>
        <time>2019-05-29T12:50:01.600Z</time>
      </trkpt>
      <trkpt lat="44.65113" lon="3.22955">
        <ele>1109</ele>
        <time>2019-05-29T12:50:06.568Z</time>
      </trkpt>
      <trkpt lat="44.65118" lon="3.22951">
        <ele>1109</ele>
        <time>2019-05-29T12:50:11.567Z</time>
      </trkpt>
      <trkpt lat="44.6512" lon="3.22951">
        <ele>1109</ele>
        <time>2019-05-29T12:50:15.572Z</time>
      </trkpt>
      <trkpt lat="44.65122" lon="3.22948">
        <ele>1109</ele>
        <time>2019-05-29T12:50:20.568Z</time>
      </trkpt>
      <trkpt lat="44.65128" lon="3.22942">
        <ele>1113</ele>
        <time>2019-05-29T12:50:25.567Z</time>
      </trkpt>
      <trkpt lat="44.65133" lon="3.22941">
        <ele>1113</ele>
        <time>2019-05-29T12:50:29.571Z</time>
      </trkpt>
      <trkpt lat="44.65136" lon="3.22939">
        <ele>1113</ele>
        <time>2019-05-29T12:50:34.569Z</time>
      </trkpt>
      <trkpt lat="44.65139" lon="3.22936">
        <ele>1113</ele>
        <time>2019-05-29T12:50:39.565Z</time>
      </trkpt>
      <trkpt lat="44.65141" lon="3.22933">
        <ele>1113</ele>
        <time>2019-05-29T12:50:43.569Z</time>
      </trkpt>
      <trkpt lat="44.65144" lon="3.22931">
        <ele>1113</ele>
        <time>2019-05-29T12:50:48.569Z</time>
      </trkpt>
      <trkpt lat="44.65149" lon="3.22928">
        <ele>1112</ele>
        <time>2019-05-29T12:50:53.604Z</time>
      </trkpt>
      <trkpt lat="44.65153" lon="3.22924">
        <ele>1113</ele>
        <time>2019-05-29T12:50:58.592Z</time>
      </trkpt>
      <trkpt lat="44.65159" lon="3.22919">
        <ele>1113</ele>
        <time>2019-05-29T12:51:03.593Z</time>
      </trkpt>
      <trkpt lat="44.65164" lon="3.22917">
        <ele>1113</ele>
        <time>2019-05-29T12:51:08.604Z</time>
      </trkpt>
      <trkpt lat="44.65167" lon="3.22914">
        <ele>1113</ele>
        <time>2019-05-29T12:51:13.575Z</time>
      </trkpt>
      <trkpt lat="44.65172" lon="3.22913">
        <ele>1113</ele>
        <time>2019-05-29T12:51:18.568Z</time>
      </trkpt>
      <trkpt lat="44.65176" lon="3.22911">
        <ele>1113</ele>
        <time>2019-05-29T12:51:22.597Z</time>
      </trkpt>
      <trkpt lat="44.65181" lon="3.22906">
        <ele>1115</ele>
        <time>2019-05-29T12:51:27.571Z</time>
      </trkpt>
      <trkpt lat="44.65185" lon="3.22902">
        <ele>1114</ele>
        <time>2019-05-29T12:51:32.604Z</time>
      </trkpt>
      <trkpt lat="44.65189" lon="3.229">
        <ele>1114</ele>
        <time>2019-05-29T12:51:37.594Z</time>
      </trkpt>
      <trkpt lat="44.65195" lon="3.22897">
        <ele>1114</ele>
        <time>2019-05-29T12:51:42.569Z</time>
      </trkpt>
      <trkpt lat="44.65198" lon="3.22895">
        <ele>1114</ele>
        <time>2019-05-29T12:51:46.569Z</time>
      </trkpt>
      <trkpt lat="44.65203" lon="3.22893">
        <ele>1114</ele>
        <time>2019-05-29T12:51:51.571Z</time>
      </trkpt>
      <trkpt lat="44.65207" lon="3.22893">
        <ele>1114</ele>
        <time>2019-05-29T12:51:56.570Z</time>
      </trkpt>
      <trkpt lat="44.65212" lon="3.22889">
        <ele>1115</ele>
        <time>2019-05-29T12:52:00.569Z</time>
      </trkpt>
      <trkpt lat="44.65217" lon="3.22885">
        <ele>1115</ele>
        <time>2019-05-29T12:52:05.567Z</time>
      </trkpt>
      <trkpt lat="44.65221" lon="3.22884">
        <ele>1115</ele>
        <time>2019-05-29T12:52:10.570Z</time>
      </trkpt>
      <trkpt lat="44.65223" lon="3.22883">
        <ele>1115</ele>
        <time>2019-05-29T12:52:14.572Z</time>
      </trkpt>
      <trkpt lat="44.65227" lon="3.22881">
        <ele>1115</ele>
        <time>2019-05-29T12:52:19.562Z</time>
      </trkpt>
      <trkpt lat="44.65231" lon="3.22881">
        <ele>1115</ele>
        <time>2019-05-29T12:52:24.568Z</time>
      </trkpt>
      <trkpt lat="44.65236" lon="3.22878">
        <ele>1115</ele>
        <time>2019-05-29T12:52:29.558Z</time>
      </trkpt>
      <trkpt lat="44.6524" lon="3.22875">
        <ele>1114</ele>
        <time>2019-05-29T12:52:33.579Z</time>
      </trkpt>
      <trkpt lat="44.65244" lon="3.22872">
        <ele>1114</ele>
        <time>2019-05-29T12:52:38.560Z</time>
      </trkpt>
      <trkpt lat="44.65248" lon="3.2287">
        <ele>1114</ele>
        <time>2019-05-29T12:52:42.568Z</time>
      </trkpt>
      <trkpt lat="44.65254" lon="3.22866">
        <ele>1114</ele>
        <time>2019-05-29T12:52:47.574Z</time>
      </trkpt>
      <trkpt lat="44.65258" lon="3.22864">
        <ele>1114</ele>
        <time>2019-05-29T12:52:52.591Z</time>
      </trkpt>
      <trkpt lat="44.65261" lon="3.22861">
        <ele>1114</ele>
        <time>2019-05-29T12:52:57.568Z</time>
      </trkpt>
      <trkpt lat="44.65266" lon="3.22859">
        <ele>1118</ele>
        <time>2019-05-29T12:53:02.574Z</time>
      </trkpt>
      <trkpt lat="44.6527" lon="3.22858">
        <ele>1118</ele>
        <time>2019-05-29T12:53:07.593Z</time>
      </trkpt>
      <trkpt lat="44.65273" lon="3.22856">
        <ele>1118</ele>
        <time>2019-05-29T12:53:12.559Z</time>
      </trkpt>
      <trkpt lat="44.65277" lon="3.22855">
        <ele>1118</ele>
        <time>2019-05-29T12:53:16.599Z</time>
      </trkpt>
      <trkpt lat="44.65277" lon="3.22853">
        <ele>1118</ele>
        <time>2019-05-29T12:53:59.590Z</time>
      </trkpt>
      <trkpt lat="44.65274" lon="3.22854">
        <ele>1118</ele>
        <time>2019-05-29T12:54:04.565Z</time>
      </trkpt>
      <trkpt lat="44.65271" lon="3.22856">
        <ele>1118</ele>
        <time>2019-05-29T12:54:09.588Z</time>
      </trkpt>
      <trkpt lat="44.6527" lon="3.22857">
        <ele>1118</ele>
        <time>2019-05-29T12:54:14.559Z</time>
      </trkpt>
      <trkpt lat="44.65265" lon="3.2286">
        <ele>1118</ele>
        <time>2019-05-29T12:54:19.549Z</time>
      </trkpt>
      <trkpt lat="44.65263" lon="3.22861">
        <ele>1114</ele>
        <time>2019-05-29T12:54:23.562Z</time>
      </trkpt>
      <trkpt lat="44.65264" lon="3.2286">
        <ele>1114</ele>
        <time>2019-05-29T12:55:06.589Z</time>
      </trkpt>
      <trkpt lat="44.65268" lon="3.22857">
        <ele>1118</ele>
        <time>2019-05-29T12:55:10.565Z</time>
      </trkpt>
      <trkpt lat="44.65274" lon="3.22852">
        <ele>1118</ele>
        <time>2019-05-29T12:55:15.567Z</time>
      </trkpt>
      <trkpt lat="44.65278" lon="3.22851">
        <ele>1118</ele>
        <time>2019-05-29T12:55:19.566Z</time>
      </trkpt>
      <trkpt lat="44.65284" lon="3.2285">
        <ele>1118</ele>
        <time>2019-05-29T12:55:24.554Z</time>
      </trkpt>
      <trkpt lat="44.65289" lon="3.22854">
        <ele>1118</ele>
        <time>2019-05-29T12:55:29.563Z</time>
      </trkpt>
      <trkpt lat="44.65292" lon="3.22857">
        <ele>1122</ele>
        <time>2019-05-29T12:55:33.578Z</time>
      </trkpt>
      <trkpt lat="44.65297" lon="3.22861">
        <ele>1122</ele>
        <time>2019-05-29T12:55:38.567Z</time>
      </trkpt>
      <trkpt lat="44.65296" lon="3.22867">
        <ele>1122</ele>
        <time>2019-05-29T12:55:43.567Z</time>
      </trkpt>
      <trkpt lat="44.65295" lon="3.22873">
        <ele>1122</ele>
        <time>2019-05-29T12:55:47.566Z</time>
      </trkpt>
      <trkpt lat="44.65295" lon="3.22882">
        <ele>1124</ele>
        <time>2019-05-29T12:55:52.568Z</time>
      </trkpt>
      <trkpt lat="44.65294" lon="3.22905">
        <ele>1125</ele>
        <time>2019-05-29T12:56:30.553Z</time>
      </trkpt>
      <trkpt lat="44.65295" lon="3.2291">
        <ele>1125</ele>
        <time>2019-05-29T12:56:35.548Z</time>
      </trkpt>
      <trkpt lat="44.65295" lon="3.22914">
        <ele>1125</ele>
        <time>2019-05-29T12:56:39.561Z</time>
      </trkpt>
      <trkpt lat="44.65295" lon="3.22921">
        <ele>1125</ele>
        <time>2019-05-29T12:56:43.579Z</time>
      </trkpt>
      <trkpt lat="44.65295" lon="3.22928">
        <ele>1125</ele>
        <time>2019-05-29T12:56:47.598Z</time>
      </trkpt>
      <trkpt lat="44.65295" lon="3.22936">
        <ele>1124</ele>
        <time>2019-05-29T12:56:52.579Z</time>
      </trkpt>
      <trkpt lat="44.65297" lon="3.22943">
        <ele>1124</ele>
        <time>2019-05-29T12:56:56.600Z</time>
      </trkpt>
      <trkpt lat="44.65297" lon="3.22949">
        <ele>1124</ele>
        <time>2019-05-29T12:57:01.566Z</time>
      </trkpt>
      <trkpt lat="44.65297" lon="3.22957">
        <ele>1124</ele>
        <time>2019-05-29T12:57:05.588Z</time>
      </trkpt>
      <trkpt lat="44.653" lon="3.22965">
        <ele>1124</ele>
        <time>2019-05-29T12:57:10.570Z</time>
      </trkpt>
      <trkpt lat="44.65302" lon="3.2297">
        <ele>1124</ele>
        <time>2019-05-29T12:57:15.603Z</time>
      </trkpt>
      <trkpt lat="44.65305" lon="3.22978">
        <ele>1124</ele>
        <time>2019-05-29T12:57:20.558Z</time>
      </trkpt>
      <trkpt lat="44.65307" lon="3.22986">
        <ele>1124</ele>
        <time>2019-05-29T12:57:25.604Z</time>
      </trkpt>
      <trkpt lat="44.6531" lon="3.22995">
        <ele>1122</ele>
        <time>2019-05-29T12:57:30.595Z</time>
      </trkpt>
      <trkpt lat="44.65312" lon="3.23004">
        <ele>1122</ele>
        <time>2019-05-29T12:57:35.581Z</time>
      </trkpt>
      <trkpt lat="44.65314" lon="3.2301">
        <ele>1122</ele>
        <time>2019-05-29T12:57:40.556Z</time>
      </trkpt>
      <trkpt lat="44.65317" lon="3.23017">
        <ele>1121</ele>
        <time>2019-05-29T12:57:45.560Z</time>
      </trkpt>
      <trkpt lat="44.65321" lon="3.23025">
        <ele>1126</ele>
        <time>2019-05-29T12:57:50.567Z</time>
      </trkpt>
      <trkpt lat="44.65324" lon="3.23033">
        <ele>1126</ele>
        <time>2019-05-29T12:57:55.572Z</time>
      </trkpt>
      <trkpt lat="44.65328" lon="3.23039">
        <ele>1126</ele>
        <time>2019-05-29T12:58:00.572Z</time>
      </trkpt>
      <trkpt lat="44.65331" lon="3.23044">
        <ele>1125</ele>
        <time>2019-05-29T12:58:04.594Z</time>
      </trkpt>
      <trkpt lat="44.65333" lon="3.23051">
        <ele>1125</ele>
        <time>2019-05-29T12:58:09.601Z</time>
      </trkpt>
      <trkpt lat="44.65335" lon="3.23057">
        <ele>1125</ele>
        <time>2019-05-29T12:58:14.610Z</time>
      </trkpt>
      <trkpt lat="44.65337" lon="3.23064">
        <ele>1125</ele>
        <time>2019-05-29T12:58:19.568Z</time>
      </trkpt>
      <trkpt lat="44.65339" lon="3.23071">
        <ele>1126</ele>
        <time>2019-05-29T12:58:24.573Z</time>
      </trkpt>
      <trkpt lat="44.65341" lon="3.23079">
        <ele>1126</ele>
        <time>2019-05-29T12:58:29.569Z</time>
      </trkpt>
      <trkpt lat="44.65343" lon="3.23084">
        <ele>1126</ele>
        <time>2019-05-29T12:58:33.570Z</time>
      </trkpt>
      <trkpt lat="44.65345" lon="3.23091">
        <ele>1126</ele>
        <time>2019-05-29T12:58:38.573Z</time>
      </trkpt>
      <trkpt lat="44.65347" lon="3.23098">
        <ele>1125</ele>
        <time>2019-05-29T12:58:43.566Z</time>
      </trkpt>
      <trkpt lat="44.65348" lon="3.23102">
        <ele>1128</ele>
        <time>2019-05-29T12:58:48.555Z</time>
      </trkpt>
      <trkpt lat="44.65349" lon="3.23105">
        <ele>1128</ele>
        <time>2019-05-29T12:58:57.549Z</time>
      </trkpt>
      <trkpt lat="44.65352" lon="3.23111">
        <ele>1128</ele>
        <time>2019-05-29T12:59:02.547Z</time>
      </trkpt>
      <trkpt lat="44.65353" lon="3.23117">
        <ele>1128</ele>
        <time>2019-05-29T12:59:06.601Z</time>
      </trkpt>
      <trkpt lat="44.65356" lon="3.23123">
        <ele>1128</ele>
        <time>2019-05-29T12:59:11.564Z</time>
      </trkpt>
      <trkpt lat="44.65357" lon="3.2313">
        <ele>1126</ele>
        <time>2019-05-29T12:59:15.572Z</time>
      </trkpt>
      <trkpt lat="44.65359" lon="3.23136">
        <ele>1126</ele>
        <time>2019-05-29T12:59:20.614Z</time>
      </trkpt>
      <trkpt lat="44.6536" lon="3.23145">
        <ele>1126</ele>
        <time>2019-05-29T12:59:25.568Z</time>
      </trkpt>
      <trkpt lat="44.65362" lon="3.23153">
        <ele>1126</ele>
        <time>2019-05-29T12:59:30.569Z</time>
      </trkpt>
      <trkpt lat="44.65363" lon="3.23159">
        <ele>1125</ele>
        <time>2019-05-29T12:59:35.580Z</time>
      </trkpt>
      <trkpt lat="44.65363" lon="3.23166">
        <ele>1125</ele>
        <time>2019-05-29T12:59:40.547Z</time>
      </trkpt>
      <trkpt lat="44.65362" lon="3.23174">
        <ele>1125</ele>
        <time>2019-05-29T12:59:50.552Z</time>
      </trkpt>
      <trkpt lat="44.65364" lon="3.23181">
        <ele>1125</ele>
        <time>2019-05-29T12:59:54.572Z</time>
      </trkpt>
      <trkpt lat="44.65366" lon="3.23187">
        <ele>1125</ele>
        <time>2019-05-29T12:59:59.567Z</time>
      </trkpt>
      <trkpt lat="44.65369" lon="3.23194">
        <ele>1125</ele>
        <time>2019-05-29T13:00:04.564Z</time>
      </trkpt>
      <trkpt lat="44.65369" lon="3.23203">
        <ele>1125</ele>
        <time>2019-05-29T13:00:09.565Z</time>
      </trkpt>
      <trkpt lat="44.65368" lon="3.23209">
        <ele>1126</ele>
        <time>2019-05-29T13:00:13.565Z</time>
      </trkpt>
      <trkpt lat="44.65367" lon="3.23215">
        <ele>1126</ele>
        <time>2019-05-29T13:00:17.599Z</time>
      </trkpt>
      <trkpt lat="44.65367" lon="3.23223">
        <ele>1126</ele>
        <time>2019-05-29T13:00:22.569Z</time>
      </trkpt>
      <trkpt lat="44.65367" lon="3.23229">
        <ele>1126</ele>
        <time>2019-05-29T13:00:27.573Z</time>
      </trkpt>
      <trkpt lat="44.65368" lon="3.23237">
        <ele>1129</ele>
        <time>2019-05-29T13:00:32.566Z</time>
      </trkpt>
      <trkpt lat="44.65368" lon="3.23242">
        <ele>1129</ele>
        <time>2019-05-29T13:00:36.598Z</time>
      </trkpt>
      <trkpt lat="44.65368" lon="3.2325">
        <ele>1129</ele>
        <time>2019-05-29T13:00:41.567Z</time>
      </trkpt>
      <trkpt lat="44.65367" lon="3.2326">
        <ele>1129</ele>
        <time>2019-05-29T13:00:46.600Z</time>
      </trkpt>
      <trkpt lat="44.65366" lon="3.23269">
        <ele>1130</ele>
        <time>2019-05-29T13:00:51.561Z</time>
      </trkpt>
      <trkpt lat="44.65366" lon="3.23277">
        <ele>1130</ele>
        <time>2019-05-29T13:00:55.600Z</time>
      </trkpt>
      <trkpt lat="44.65367" lon="3.23284">
        <ele>1130</ele>
        <time>2019-05-29T13:01:00.572Z</time>
      </trkpt>
      <trkpt lat="44.65367" lon="3.23292">
        <ele>1131</ele>
        <time>2019-05-29T13:01:05.601Z</time>
      </trkpt>
      <trkpt lat="44.65367" lon="3.23299">
        <ele>1131</ele>
        <time>2019-05-29T13:01:10.569Z</time>
      </trkpt>
      <trkpt lat="44.65367" lon="3.23307">
        <ele>1131</ele>
        <time>2019-05-29T13:01:15.604Z</time>
      </trkpt>
      <trkpt lat="44.65366" lon="3.23315">
        <ele>1131</ele>
        <time>2019-05-29T13:01:20.569Z</time>
      </trkpt>
      <trkpt lat="44.65366" lon="3.23322">
        <ele>1131</ele>
        <time>2019-05-29T13:01:25.595Z</time>
      </trkpt>
      <trkpt lat="44.65366" lon="3.23329">
        <ele>1131</ele>
        <time>2019-05-29T13:01:30.549Z</time>
      </trkpt>
      <trkpt lat="44.65366" lon="3.2333">
        <ele>1131</ele>
        <time>2019-05-29T13:01:34.553Z</time>
      </trkpt>
      <trkpt lat="44.65366" lon="3.23331">
        <ele>1131</ele>
        <time>2019-05-29T13:01:39.552Z</time>
      </trkpt>
      <trkpt lat="44.65367" lon="3.23334">
        <ele>1131</ele>
        <time>2019-05-29T13:01:43.575Z</time>
      </trkpt>
      <trkpt lat="44.65366" lon="3.23342">
        <ele>1131</ele>
        <time>2019-05-29T13:01:47.588Z</time>
      </trkpt>
      <trkpt lat="44.65366" lon="3.23349">
        <ele>1131</ele>
        <time>2019-05-29T13:01:52.574Z</time>
      </trkpt>
      <trkpt lat="44.65366" lon="3.23356">
        <ele>1131</ele>
        <time>2019-05-29T13:01:57.549Z</time>
      </trkpt>
      <trkpt lat="44.65366" lon="3.23364">
        <ele>1131</ele>
        <time>2019-05-29T13:02:01.571Z</time>
      </trkpt>
      <trkpt lat="44.65366" lon="3.2337">
        <ele>1131</ele>
        <time>2019-05-29T13:02:06.572Z</time>
      </trkpt>
      <trkpt lat="44.65366" lon="3.23378">
        <ele>1131</ele>
        <time>2019-05-29T13:02:11.604Z</time>
      </trkpt>
      <trkpt lat="44.65366" lon="3.23388">
        <ele>1131</ele>
        <time>2019-05-29T13:02:16.576Z</time>
      </trkpt>
      <trkpt lat="44.65367" lon="3.23397">
        <ele>1131</ele>
        <time>2019-05-29T13:02:21.569Z</time>
      </trkpt>
      <trkpt lat="44.65368" lon="3.23405">
        <ele>1131</ele>
        <time>2019-05-29T13:02:26.573Z</time>
      </trkpt>
      <trkpt lat="44.65368" lon="3.23412">
        <ele>1131</ele>
        <time>2019-05-29T13:02:31.570Z</time>
      </trkpt>
      <trkpt lat="44.6537" lon="3.2342">
        <ele>1131</ele>
        <time>2019-05-29T13:02:36.564Z</time>
      </trkpt>
      <trkpt lat="44.65371" lon="3.23426">
        <ele>1131</ele>
        <time>2019-05-29T13:02:40.580Z</time>
      </trkpt>
      <trkpt lat="44.65372" lon="3.23436">
        <ele>1130</ele>
        <time>2019-05-29T13:02:45.565Z</time>
      </trkpt>
      <trkpt lat="44.65373" lon="3.23444">
        <ele>1130</ele>
        <time>2019-05-29T13:02:50.603Z</time>
      </trkpt>
      <trkpt lat="44.65373" lon="3.23452">
        <ele>1130</ele>
        <time>2019-05-29T13:02:55.572Z</time>
      </trkpt>
      <trkpt lat="44.65373" lon="3.2346">
        <ele>1132</ele>
        <time>2019-05-29T13:03:00.561Z</time>
      </trkpt>
      <trkpt lat="44.65372" lon="3.23467">
        <ele>1132</ele>
        <time>2019-05-29T13:03:04.567Z</time>
      </trkpt>
      <trkpt lat="44.65372" lon="3.23472">
        <ele>1132</ele>
        <time>2019-05-29T13:03:08.581Z</time>
      </trkpt>
      <trkpt lat="44.6537" lon="3.23479">
        <ele>1132</ele>
        <time>2019-05-29T13:03:13.574Z</time>
      </trkpt>
      <trkpt lat="44.65368" lon="3.23485">
        <ele>1132</ele>
        <time>2019-05-29T13:03:17.573Z</time>
      </trkpt>
      <trkpt lat="44.65364" lon="3.23492">
        <ele>1134</ele>
        <time>2019-05-29T13:03:22.565Z</time>
      </trkpt>
      <trkpt lat="44.65362" lon="3.23499">
        <ele>1134</ele>
        <time>2019-05-29T13:03:26.602Z</time>
      </trkpt>
      <trkpt lat="44.6536" lon="3.23508">
        <ele>1134</ele>
        <time>2019-05-29T13:03:31.601Z</time>
      </trkpt>
      <trkpt lat="44.65359" lon="3.23514">
        <ele>1137</ele>
        <time>2019-05-29T13:03:36.603Z</time>
      </trkpt>
      <trkpt lat="44.65358" lon="3.23522">
        <ele>1137</ele>
        <time>2019-05-29T13:03:41.573Z</time>
      </trkpt>
      <trkpt lat="44.65356" lon="3.23531">
        <ele>1137</ele>
        <time>2019-05-29T13:03:46.563Z</time>
      </trkpt>
      <trkpt lat="44.65355" lon="3.23537">
        <ele>1137</ele>
        <time>2019-05-29T13:03:50.573Z</time>
      </trkpt>
      <trkpt lat="44.65354" lon="3.23544">
        <ele>1136</ele>
        <time>2019-05-29T13:03:55.565Z</time>
      </trkpt>
      <trkpt lat="44.65353" lon="3.23551">
        <ele>1136</ele>
        <time>2019-05-29T13:03:59.573Z</time>
      </trkpt>
      <trkpt lat="44.6535" lon="3.2356">
        <ele>1136</ele>
        <time>2019-05-29T13:04:04.572Z</time>
      </trkpt>
      <trkpt lat="44.65348" lon="3.23568">
        <ele>1136</ele>
        <time>2019-05-29T13:04:09.572Z</time>
      </trkpt>
      <trkpt lat="44.65346" lon="3.23576">
        <ele>1142</ele>
        <time>2019-05-29T13:04:14.570Z</time>
      </trkpt>
      <trkpt lat="44.65344" lon="3.23584">
        <ele>1142</ele>
        <time>2019-05-29T13:04:19.567Z</time>
      </trkpt>
      <trkpt lat="44.65341" lon="3.2359">
        <ele>1142</ele>
        <time>2019-05-29T13:04:23.602Z</time>
      </trkpt>
      <trkpt lat="44.6534" lon="3.23599">
        <ele>1141</ele>
        <time>2019-05-29T13:04:28.564Z</time>
      </trkpt>
      <trkpt lat="44.65338" lon="3.23606">
        <ele>1141</ele>
        <time>2019-05-29T13:04:32.581Z</time>
      </trkpt>
      <trkpt lat="44.65336" lon="3.23612">
        <ele>1141</ele>
        <time>2019-05-29T13:04:36.575Z</time>
      </trkpt>
      <trkpt lat="44.65334" lon="3.23619">
        <ele>1141</ele>
        <time>2019-05-29T13:04:41.570Z</time>
      </trkpt>
      <trkpt lat="44.65331" lon="3.23628">
        <ele>1138</ele>
        <time>2019-05-29T13:04:46.590Z</time>
      </trkpt>
      <trkpt lat="44.6533" lon="3.23635">
        <ele>1138</ele>
        <time>2019-05-29T13:04:51.556Z</time>
      </trkpt>
      <trkpt lat="44.65329" lon="3.23643">
        <ele>1138</ele>
        <time>2019-05-29T13:04:55.594Z</time>
      </trkpt>
      <trkpt lat="44.65327" lon="3.23652">
        <ele>1138</ele>
        <time>2019-05-29T13:05:00.607Z</time>
      </trkpt>
      <trkpt lat="44.65325" lon="3.23659">
        <ele>1136</ele>
        <time>2019-05-29T13:05:05.562Z</time>
      </trkpt>
      <trkpt lat="44.65321" lon="3.23667">
        <ele>1136</ele>
        <time>2019-05-29T13:05:10.591Z</time>
      </trkpt>
      <trkpt lat="44.65318" lon="3.23674">
        <ele>1143</ele>
        <time>2019-05-29T13:05:15.562Z</time>
      </trkpt>
      <trkpt lat="44.65316" lon="3.23681">
        <ele>1143</ele>
        <time>2019-05-29T13:05:20.549Z</time>
      </trkpt>
      <trkpt lat="44.65317" lon="3.23688">
        <ele>1143</ele>
        <time>2019-05-29T13:05:24.560Z</time>
      </trkpt>
      <trkpt lat="44.65316" lon="3.23695">
        <ele>1143</ele>
        <time>2019-05-29T13:05:29.563Z</time>
      </trkpt>
      <trkpt lat="44.65316" lon="3.23701">
        <ele>1143</ele>
        <time>2019-05-29T13:05:33.586Z</time>
      </trkpt>
      <trkpt lat="44.65317" lon="3.23707">
        <ele>1143</ele>
        <time>2019-05-29T13:05:38.590Z</time>
      </trkpt>
      <trkpt lat="44.65318" lon="3.2371">
        <ele>1142</ele>
        <time>2019-05-29T13:05:43.578Z</time>
      </trkpt>
      <trkpt lat="44.65317" lon="3.23712">
        <ele>1142</ele>
        <time>2019-05-29T13:05:53.550Z</time>
      </trkpt>
      <trkpt lat="44.65317" lon="3.23719">
        <ele>1142</ele>
        <time>2019-05-29T13:05:58.554Z</time>
      </trkpt>
      <trkpt lat="44.65319" lon="3.23721">
        <ele>1142</ele>
        <time>2019-05-29T13:06:03.550Z</time>
      </trkpt>
      <trkpt lat="44.65318" lon="3.23726">
        <ele>1142</ele>
        <time>2019-05-29T13:06:13.551Z</time>
      </trkpt>
      <trkpt lat="44.65315" lon="3.23734">
        <ele>1142</ele>
        <time>2019-05-29T13:06:18.555Z</time>
      </trkpt>
      <trkpt lat="44.65314" lon="3.23741">
        <ele>1141</ele>
        <time>2019-05-29T13:06:23.580Z</time>
      </trkpt>
      <trkpt lat="44.65314" lon="3.23749">
        <ele>1141</ele>
        <time>2019-05-29T13:06:28.586Z</time>
      </trkpt>
      <trkpt lat="44.65314" lon="3.23756">
        <ele>1141</ele>
        <time>2019-05-29T13:06:33.549Z</time>
      </trkpt>
      <trkpt lat="44.65314" lon="3.23765">
        <ele>1141</ele>
        <time>2019-05-29T13:06:38.549Z</time>
      </trkpt>
      <trkpt lat="44.65313" lon="3.23771">
        <ele>1141</ele>
        <time>2019-05-29T13:06:42.551Z</time>
      </trkpt>
      <trkpt lat="44.65312" lon="3.23774">
        <ele>1141</ele>
        <time>2019-05-29T13:06:47.551Z</time>
      </trkpt>
      <trkpt lat="44.65315" lon="3.23781">
        <ele>1141</ele>
        <time>2019-05-29T13:09:56.552Z</time>
      </trkpt>
      <trkpt lat="44.65315" lon="3.23774">
        <ele>1141</ele>
        <time>2019-05-29T13:10:00.584Z</time>
      </trkpt>
      <trkpt lat="44.65315" lon="3.23767">
        <ele>1141</ele>
        <time>2019-05-29T13:10:05.567Z</time>
      </trkpt>
      <trkpt lat="44.65316" lon="3.2376">
        <ele>1141</ele>
        <time>2019-05-29T13:10:10.571Z</time>
      </trkpt>
      <trkpt lat="44.65316" lon="3.23752">
        <ele>1141</ele>
        <time>2019-05-29T13:10:15.572Z</time>
      </trkpt>
      <trkpt lat="44.65316" lon="3.23743">
        <ele>1141</ele>
        <time>2019-05-29T13:10:20.594Z</time>
      </trkpt>
      <trkpt lat="44.65312" lon="3.23736">
        <ele>1142</ele>
        <time>2019-05-29T13:10:25.563Z</time>
      </trkpt>
      <trkpt lat="44.65307" lon="3.23735">
        <ele>1142</ele>
        <time>2019-05-29T13:10:30.569Z</time>
      </trkpt>
      <trkpt lat="44.65307" lon="3.23735">
        <ele>1142</ele>
        <time>2019-05-29T13:10:35.547Z</time>
      </trkpt>
      <trkpt lat="44.65307" lon="3.23734">
        <ele>1142</ele>
        <time>2019-05-29T13:10:49.552Z</time>
      </trkpt>
      <trkpt lat="44.65304" lon="3.23739">
        <ele>1141</ele>
        <time>2019-05-29T13:10:54.587Z</time>
      </trkpt>
      <trkpt lat="44.65303" lon="3.23744">
        <ele>1141</ele>
        <time>2019-05-29T13:10:59.548Z</time>
      </trkpt>
      <trkpt lat="44.653" lon="3.23743">
        <ele>1141</ele>
        <time>2019-05-29T13:11:04.550Z</time>
      </trkpt>
      <trkpt lat="44.65298" lon="3.23746">
        <ele>1141</ele>
        <time>2019-05-29T13:11:09.606Z</time>
      </trkpt>
      <trkpt lat="44.65295" lon="3.2375">
        <ele>1141</ele>
        <time>2019-05-29T13:11:14.613Z</time>
      </trkpt>
      <trkpt lat="44.65292" lon="3.23753">
        <ele>1141</ele>
        <time>2019-05-29T13:11:19.575Z</time>
      </trkpt>
      <trkpt lat="44.65288" lon="3.23755">
        <ele>1148</ele>
        <time>2019-05-29T13:11:24.566Z</time>
      </trkpt>
      <trkpt lat="44.65285" lon="3.23761">
        <ele>1148</ele>
        <time>2019-05-29T13:11:28.591Z</time>
      </trkpt>
      <trkpt lat="44.65282" lon="3.23766">
        <ele>1147</ele>
        <time>2019-05-29T13:11:33.547Z</time>
      </trkpt>
      <trkpt lat="44.65279" lon="3.23774">
        <ele>1147</ele>
        <time>2019-05-29T13:11:37.578Z</time>
      </trkpt>
      <trkpt lat="44.65277" lon="3.23781">
        <ele>1147</ele>
        <time>2019-05-29T13:11:42.593Z</time>
      </trkpt>
      <trkpt lat="44.65274" lon="3.23789">
        <ele>1147</ele>
        <time>2019-05-29T13:11:47.577Z</time>
      </trkpt>
      <trkpt lat="44.6527" lon="3.23799">
        <ele>1147</ele>
        <time>2019-05-29T13:11:52.583Z</time>
      </trkpt>
      <trkpt lat="44.65268" lon="3.23805">
        <ele>1147</ele>
        <time>2019-05-29T13:11:56.602Z</time>
      </trkpt>
      <trkpt lat="44.65266" lon="3.23813">
        <ele>1147</ele>
        <time>2019-05-29T13:12:01.569Z</time>
      </trkpt>
      <trkpt lat="44.65263" lon="3.23822">
        <ele>1154</ele>
        <time>2019-05-29T13:12:06.569Z</time>
      </trkpt>
      <trkpt lat="44.65261" lon="3.23827">
        <ele>1154</ele>
        <time>2019-05-29T13:12:10.604Z</time>
      </trkpt>
      <trkpt lat="44.65261" lon="3.23833">
        <ele>1154</ele>
        <time>2019-05-29T13:12:15.577Z</time>
      </trkpt>
      <trkpt lat="44.6526" lon="3.2384">
        <ele>1154</ele>
        <time>2019-05-29T13:12:20.569Z</time>
      </trkpt>
      <trkpt lat="44.6526" lon="3.23847">
        <ele>1154</ele>
        <time>2019-05-29T13:12:25.571Z</time>
      </trkpt>
      <trkpt lat="44.65259" lon="3.23856">
        <ele>1154</ele>
        <time>2019-05-29T13:12:30.569Z</time>
      </trkpt>
      <trkpt lat="44.65259" lon="3.23859">
        <ele>1154</ele>
        <time>2019-05-29T13:12:35.574Z</time>
      </trkpt>
      <trkpt lat="44.65259" lon="3.23864">
        <ele>1154</ele>
        <time>2019-05-29T13:12:40.575Z</time>
      </trkpt>
      <trkpt lat="44.65259" lon="3.23871">
        <ele>1154</ele>
        <time>2019-05-29T13:12:45.600Z</time>
      </trkpt>
      <trkpt lat="44.65258" lon="3.23879">
        <ele>1154</ele>
        <time>2019-05-29T13:12:50.574Z</time>
      </trkpt>
      <trkpt lat="44.65256" lon="3.2389">
        <ele>1154</ele>
        <time>2019-05-29T13:12:55.569Z</time>
      </trkpt>
      <trkpt lat="44.65255" lon="3.23895">
        <ele>1154</ele>
        <time>2019-05-29T13:12:59.574Z</time>
      </trkpt>
      <trkpt lat="44.65253" lon="3.23904">
        <ele>1155</ele>
        <time>2019-05-29T13:13:04.599Z</time>
      </trkpt>
      <trkpt lat="44.65251" lon="3.23912">
        <ele>1155</ele>
        <time>2019-05-29T13:13:09.604Z</time>
      </trkpt>
      <trkpt lat="44.65247" lon="3.23922">
        <ele>1155</ele>
        <time>2019-05-29T13:13:14.575Z</time>
      </trkpt>
      <trkpt lat="44.65244" lon="3.23929">
        <ele>1155</ele>
        <time>2019-05-29T13:13:19.578Z</time>
      </trkpt>
      <trkpt lat="44.65242" lon="3.23935">
        <ele>1154</ele>
        <time>2019-05-29T13:13:24.566Z</time>
      </trkpt>
      <trkpt lat="44.65238" lon="3.23942">
        <ele>1154</ele>
        <time>2019-05-29T13:13:29.598Z</time>
      </trkpt>
      <trkpt lat="44.65233" lon="3.23947">
        <ele>1158</ele>
        <time>2019-05-29T13:13:34.570Z</time>
      </trkpt>
      <trkpt lat="44.65228" lon="3.23952">
        <ele>1158</ele>
        <time>2019-05-29T13:13:39.573Z</time>
      </trkpt>
      <trkpt lat="44.65224" lon="3.23955">
        <ele>1158</ele>
        <time>2019-05-29T13:13:44.568Z</time>
      </trkpt>
      <trkpt lat="44.65219" lon="3.23958">
        <ele>1158</ele>
        <time>2019-05-29T13:13:49.550Z</time>
      </trkpt>
      <trkpt lat="44.65214" lon="3.23963">
        <ele>1155</ele>
        <time>2019-05-29T13:13:53.572Z</time>
      </trkpt>
      <trkpt lat="44.65207" lon="3.23968">
        <ele>1158</ele>
        <time>2019-05-29T13:13:58.594Z</time>
      </trkpt>
      <trkpt lat="44.65202" lon="3.23973">
        <ele>1158</ele>
        <time>2019-05-29T13:14:03.566Z</time>
      </trkpt>
      <trkpt lat="44.65198" lon="3.23975">
        <ele>1158</ele>
        <time>2019-05-29T13:14:07.605Z</time>
      </trkpt>
      <trkpt lat="44.65196" lon="3.23977">
        <ele>1158</ele>
        <time>2019-05-29T13:14:12.569Z</time>
      </trkpt>
      <trkpt lat="44.65191" lon="3.23982">
        <ele>1158</ele>
        <time>2019-05-29T13:14:17.584Z</time>
      </trkpt>
      <trkpt lat="44.65186" lon="3.23986">
        <ele>1158</ele>
        <time>2019-05-29T13:14:22.597Z</time>
      </trkpt>
      <trkpt lat="44.65181" lon="3.2399">
        <ele>1157</ele>
        <time>2019-05-29T13:14:27.573Z</time>
      </trkpt>
      <trkpt lat="44.65175" lon="3.23993">
        <ele>1160</ele>
        <time>2019-05-29T13:14:32.576Z</time>
      </trkpt>
      <trkpt lat="44.65169" lon="3.23996">
        <ele>1160</ele>
        <time>2019-05-29T13:14:37.606Z</time>
      </trkpt>
      <trkpt lat="44.65165" lon="3.23999">
        <ele>1160</ele>
        <time>2019-05-29T13:14:42.606Z</time>
      </trkpt>
      <trkpt lat="44.65161" lon="3.24002">
        <ele>1160</ele>
        <time>2019-05-29T13:14:47.564Z</time>
      </trkpt>
      <trkpt lat="44.65155" lon="3.24006">
        <ele>1160</ele>
        <time>2019-05-29T13:14:52.568Z</time>
      </trkpt>
      <trkpt lat="44.65149" lon="3.2401">
        <ele>1161</ele>
        <time>2019-05-29T13:14:57.565Z</time>
      </trkpt>
      <trkpt lat="44.65146" lon="3.24012">
        <ele>1161</ele>
        <time>2019-05-29T13:15:01.575Z</time>
      </trkpt>
      <trkpt lat="44.65143" lon="3.24016">
        <ele>1161</ele>
        <time>2019-05-29T13:15:05.585Z</time>
      </trkpt>
      <trkpt lat="44.65139" lon="3.24021">
        <ele>1161</ele>
        <time>2019-05-29T13:15:10.564Z</time>
      </trkpt>
      <trkpt lat="44.65135" lon="3.24025">
        <ele>1161</ele>
        <time>2019-05-29T13:15:15.575Z</time>
      </trkpt>
      <trkpt lat="44.65131" lon="3.24028">
        <ele>1161</ele>
        <time>2019-05-29T13:15:20.607Z</time>
      </trkpt>
      <trkpt lat="44.65127" lon="3.24032">
        <ele>1161</ele>
        <time>2019-05-29T13:15:25.566Z</time>
      </trkpt>
      <trkpt lat="44.65124" lon="3.24035">
        <ele>1161</ele>
        <time>2019-05-29T13:15:29.579Z</time>
      </trkpt>
      <trkpt lat="44.65119" lon="3.24038">
        <ele>1161</ele>
        <time>2019-05-29T13:15:34.566Z</time>
      </trkpt>
      <trkpt lat="44.65114" lon="3.24041">
        <ele>1161</ele>
        <time>2019-05-29T13:15:38.567Z</time>
      </trkpt>
      <trkpt lat="44.65109" lon="3.24043">
        <ele>1161</ele>
        <time>2019-05-29T13:15:42.606Z</time>
      </trkpt>
      <trkpt lat="44.65103" lon="3.24047">
        <ele>1161</ele>
        <time>2019-05-29T13:15:47.605Z</time>
      </trkpt>
      <trkpt lat="44.65096" lon="3.24051">
        <ele>1160</ele>
        <time>2019-05-29T13:15:52.579Z</time>
      </trkpt>
      <trkpt lat="44.65091" lon="3.24052">
        <ele>1160</ele>
        <time>2019-05-29T13:15:57.599Z</time>
      </trkpt>
      <trkpt lat="44.65087" lon="3.24054">
        <ele>1160</ele>
        <time>2019-05-29T13:16:01.606Z</time>
      </trkpt>
      <trkpt lat="44.65081" lon="3.24057">
        <ele>1160</ele>
        <time>2019-05-29T13:16:06.573Z</time>
      </trkpt>
      <trkpt lat="44.65075" lon="3.2406">
        <ele>1160</ele>
        <time>2019-05-29T13:16:11.575Z</time>
      </trkpt>
      <trkpt lat="44.6507" lon="3.24063">
        <ele>1160</ele>
        <time>2019-05-29T13:16:16.582Z</time>
      </trkpt>
      <trkpt lat="44.65065" lon="3.24064">
        <ele>1158</ele>
        <time>2019-05-29T13:16:21.568Z</time>
      </trkpt>
      <trkpt lat="44.6506" lon="3.24067">
        <ele>1158</ele>
        <time>2019-05-29T13:16:26.556Z</time>
      </trkpt>
      <trkpt lat="44.65056" lon="3.24068">
        <ele>1158</ele>
        <time>2019-05-29T13:16:30.567Z</time>
      </trkpt>
      <trkpt lat="44.65052" lon="3.24071">
        <ele>1159</ele>
        <time>2019-05-29T13:16:34.616Z</time>
      </trkpt>
      <trkpt lat="44.65048" lon="3.24074">
        <ele>1159</ele>
        <time>2019-05-29T13:16:39.593Z</time>
      </trkpt>
      <trkpt lat="44.65044" lon="3.24075">
        <ele>1159</ele>
        <time>2019-05-29T13:16:44.578Z</time>
      </trkpt>
      <trkpt lat="44.65043" lon="3.24077">
        <ele>1159</ele>
        <time>2019-05-29T13:16:49.598Z</time>
      </trkpt>
      <trkpt lat="44.65038" lon="3.24081">
        <ele>1156</ele>
        <time>2019-05-29T13:17:18.563Z</time>
      </trkpt>
      <trkpt lat="44.65035" lon="3.24082">
        <ele>1156</ele>
        <time>2019-05-29T13:17:22.574Z</time>
      </trkpt>
      <trkpt lat="44.65034" lon="3.24083">
        <ele>1156</ele>
        <time>2019-05-29T13:17:27.572Z</time>
      </trkpt>
      <trkpt lat="44.65031" lon="3.24084">
        <ele>1156</ele>
        <time>2019-05-29T13:17:32.571Z</time>
      </trkpt>
      <trkpt lat="44.65029" lon="3.24086">
        <ele>1156</ele>
        <time>2019-05-29T13:17:41.570Z</time>
      </trkpt>
      <trkpt lat="44.65026" lon="3.2409">
        <ele>1156</ele>
        <time>2019-05-29T13:17:45.595Z</time>
      </trkpt>
      <trkpt lat="44.65021" lon="3.24095">
        <ele>1156</ele>
        <time>2019-05-29T13:17:50.563Z</time>
      </trkpt>
      <trkpt lat="44.65017" lon="3.24098">
        <ele>1157</ele>
        <time>2019-05-29T13:17:54.556Z</time>
      </trkpt>
      <trkpt lat="44.6501" lon="3.24103">
        <ele>1153</ele>
        <time>2019-05-29T13:17:59.600Z</time>
      </trkpt>
      <trkpt lat="44.65004" lon="3.24105">
        <ele>1153</ele>
        <time>2019-05-29T13:18:04.576Z</time>
      </trkpt>
      <trkpt lat="44.64999" lon="3.24106">
        <ele>1153</ele>
        <time>2019-05-29T13:18:09.567Z</time>
      </trkpt>
      <trkpt lat="44.64998" lon="3.24106">
        <ele>1153</ele>
        <time>2019-05-29T13:18:14.570Z</time>
      </trkpt>
      <trkpt lat="44.64994" lon="3.24108">
        <ele>1153</ele>
        <time>2019-05-29T13:19:30.548Z</time>
      </trkpt>
      <trkpt lat="44.64996" lon="3.24112">
        <ele>1153</ele>
        <time>2019-05-29T13:19:55.577Z</time>
      </trkpt>
      <trkpt lat="44.64993" lon="3.24115">
        <ele>1153</ele>
        <time>2019-05-29T13:20:00.562Z</time>
      </trkpt>
      <trkpt lat="44.64991" lon="3.24116">
        <ele>1153</ele>
        <time>2019-05-29T13:20:05.594Z</time>
      </trkpt>
      <trkpt lat="44.64988" lon="3.24118">
        <ele>1153</ele>
        <time>2019-05-29T13:20:09.602Z</time>
      </trkpt>
      <trkpt lat="44.64985" lon="3.24118">
        <ele>1147</ele>
        <time>2019-05-29T13:20:14.596Z</time>
      </trkpt>
      <trkpt lat="44.6498" lon="3.24119">
        <ele>1147</ele>
        <time>2019-05-29T13:20:19.585Z</time>
      </trkpt>
      <trkpt lat="44.64976" lon="3.24122">
        <ele>1147</ele>
        <time>2019-05-29T13:20:24.576Z</time>
      </trkpt>
      <trkpt lat="44.64971" lon="3.24126">
        <ele>1148</ele>
        <time>2019-05-29T13:20:29.605Z</time>
      </trkpt>
      <trkpt lat="44.64966" lon="3.2413">
        <ele>1148</ele>
        <time>2019-05-29T13:20:34.570Z</time>
      </trkpt>
      <trkpt lat="44.64961" lon="3.24136">
        <ele>1148</ele>
        <time>2019-05-29T13:20:39.574Z</time>
      </trkpt>
      <trkpt lat="44.64958" lon="3.2414">
        <ele>1145</ele>
        <time>2019-05-29T13:20:43.606Z</time>
      </trkpt>
      <trkpt lat="44.64953" lon="3.24143">
        <ele>1145</ele>
        <time>2019-05-29T13:20:48.574Z</time>
      </trkpt>
      <trkpt lat="44.6495" lon="3.24145">
        <ele>1145</ele>
        <time>2019-05-29T13:20:53.590Z</time>
      </trkpt>
      <trkpt lat="44.64948" lon="3.24148">
        <ele>1145</ele>
        <time>2019-05-29T13:20:58.579Z</time>
      </trkpt>
      <trkpt lat="44.64945" lon="3.24152">
        <ele>1145</ele>
        <time>2019-05-29T13:21:02.606Z</time>
      </trkpt>
      <trkpt lat="44.64941" lon="3.24156">
        <ele>1145</ele>
        <time>2019-05-29T13:21:07.580Z</time>
      </trkpt>
      <trkpt lat="44.64936" lon="3.24158">
        <ele>1145</ele>
        <time>2019-05-29T13:21:11.577Z</time>
      </trkpt>
      <trkpt lat="44.64931" lon="3.24163">
        <ele>1145</ele>
        <time>2019-05-29T13:21:16.576Z</time>
      </trkpt>
      <trkpt lat="44.64927" lon="3.24168">
        <ele>1142</ele>
        <time>2019-05-29T13:21:21.567Z</time>
      </trkpt>
      <trkpt lat="44.64922" lon="3.24172">
        <ele>1142</ele>
        <time>2019-05-29T13:21:26.568Z</time>
      </trkpt>
      <trkpt lat="44.64918" lon="3.24176">
        <ele>1142</ele>
        <time>2019-05-29T13:21:31.581Z</time>
      </trkpt>
      <trkpt lat="44.64914" lon="3.2418">
        <ele>1142</ele>
        <time>2019-05-29T13:21:35.606Z</time>
      </trkpt>
      <trkpt lat="44.64909" lon="3.24182">
        <ele>1140</ele>
        <time>2019-05-29T13:21:40.564Z</time>
      </trkpt>
      <trkpt lat="44.64903" lon="3.24183">
        <ele>1140</ele>
        <time>2019-05-29T13:21:45.598Z</time>
      </trkpt>
      <trkpt lat="44.64899" lon="3.2418">
        <ele>1139</ele>
        <time>2019-05-29T13:21:50.568Z</time>
      </trkpt>
      <trkpt lat="44.64898" lon="3.24172">
        <ele>1139</ele>
        <time>2019-05-29T13:21:55.550Z</time>
      </trkpt>
      <trkpt lat="44.64896" lon="3.24167">
        <ele>1139</ele>
        <time>2019-05-29T13:21:59.568Z</time>
      </trkpt>
      <trkpt lat="44.64895" lon="3.2416">
        <ele>1139</ele>
        <time>2019-05-29T13:22:04.570Z</time>
      </trkpt>
      <trkpt lat="44.64896" lon="3.24153">
        <ele>1139</ele>
        <time>2019-05-29T13:22:08.574Z</time>
      </trkpt>
      <trkpt lat="44.64896" lon="3.24149">
        <ele>1140</ele>
        <time>2019-05-29T13:22:12.604Z</time>
      </trkpt>
      <trkpt lat="44.64895" lon="3.24146">
        <ele>1140</ele>
        <time>2019-05-29T13:22:17.569Z</time>
      </trkpt>
      <trkpt lat="44.64897" lon="3.24136">
        <ele>1140</ele>
        <time>2019-05-29T13:22:22.569Z</time>
      </trkpt>
      <trkpt lat="44.64896" lon="3.2413">
        <ele>1140</ele>
        <time>2019-05-29T13:22:27.569Z</time>
      </trkpt>
      <trkpt lat="44.64896" lon="3.24124">
        <ele>1139</ele>
        <time>2019-05-29T13:22:31.602Z</time>
      </trkpt>
      <trkpt lat="44.64892" lon="3.24123">
        <ele>1139</ele>
        <time>2019-05-29T13:22:36.572Z</time>
      </trkpt>
      <trkpt lat="44.64891" lon="3.24123">
        <ele>1139</ele>
        <time>2019-05-29T13:22:41.569Z</time>
      </trkpt>
      <trkpt lat="44.6489" lon="3.24123">
        <ele>1139</ele>
        <time>2019-05-29T13:22:46.613Z</time>
      </trkpt>
      <trkpt lat="44.64881" lon="3.24115">
        <ele>1139</ele>
        <time>2019-05-29T13:23:15.572Z</time>
      </trkpt>
      <trkpt lat="44.64885" lon="3.24118">
        <ele>1139</ele>
        <time>2019-05-29T13:25:25.605Z</time>
      </trkpt>
      <trkpt lat="44.64888" lon="3.24109">
        <ele>1139</ele>
        <time>2019-05-29T13:25:30.574Z</time>
      </trkpt>
      <trkpt lat="44.64887" lon="3.24103">
        <ele>1139</ele>
        <time>2019-05-29T13:25:35.572Z</time>
      </trkpt>
      <trkpt lat="44.64886" lon="3.24097">
        <ele>1137</ele>
        <time>2019-05-29T13:25:40.598Z</time>
      </trkpt>
      <trkpt lat="44.64886" lon="3.2409">
        <ele>1137</ele>
        <time>2019-05-29T13:25:45.571Z</time>
      </trkpt>
      <trkpt lat="44.64887" lon="3.24081">
        <ele>1137</ele>
        <time>2019-05-29T13:25:50.570Z</time>
      </trkpt>
      <trkpt lat="44.64885" lon="3.24074">
        <ele>1137</ele>
        <time>2019-05-29T13:25:55.573Z</time>
      </trkpt>
      <trkpt lat="44.64885" lon="3.24068">
        <ele>1134</ele>
        <time>2019-05-29T13:25:59.586Z</time>
      </trkpt>
      <trkpt lat="44.64885" lon="3.2406">
        <ele>1134</ele>
        <time>2019-05-29T13:26:04.574Z</time>
      </trkpt>
      <trkpt lat="44.64878" lon="3.24056">
        <ele>1134</ele>
        <time>2019-05-29T13:26:09.572Z</time>
      </trkpt>
      <trkpt lat="44.64876" lon="3.2405">
        <ele>1134</ele>
        <time>2019-05-29T13:26:13.603Z</time>
      </trkpt>
      <trkpt lat="44.64872" lon="3.24045">
        <ele>1134</ele>
        <time>2019-05-29T13:26:18.605Z</time>
      </trkpt>
      <trkpt lat="44.64866" lon="3.2404">
        <ele>1131</ele>
        <time>2019-05-29T13:26:23.575Z</time>
      </trkpt>
      <trkpt lat="44.64868" lon="3.24031">
        <ele>1131</ele>
        <time>2019-05-29T13:26:28.568Z</time>
      </trkpt>
      <trkpt lat="44.64866" lon="3.24023">
        <ele>1131</ele>
        <time>2019-05-29T13:26:33.574Z</time>
      </trkpt>
      <trkpt lat="44.64863" lon="3.24018">
        <ele>1131</ele>
        <time>2019-05-29T13:26:37.603Z</time>
      </trkpt>
      <trkpt lat="44.64861" lon="3.24013">
        <ele>1128</ele>
        <time>2019-05-29T13:26:42.574Z</time>
      </trkpt>
      <trkpt lat="44.6486" lon="3.24007">
        <ele>1128</ele>
        <time>2019-05-29T13:26:46.570Z</time>
      </trkpt>
      <trkpt lat="44.6486" lon="3.24">
        <ele>1128</ele>
        <time>2019-05-29T13:26:51.570Z</time>
      </trkpt>
      <trkpt lat="44.64858" lon="3.23996">
        <ele>1128</ele>
        <time>2019-05-29T13:26:55.607Z</time>
      </trkpt>
      <trkpt lat="44.64856" lon="3.23995">
        <ele>1128</ele>
        <time>2019-05-29T13:27:00.571Z</time>
      </trkpt>
      <trkpt lat="44.64857" lon="3.23995">
        <ele>1128</ele>
        <time>2019-05-29T13:27:33.555Z</time>
      </trkpt>
      <trkpt lat="44.64855" lon="3.23991">
        <ele>1128</ele>
        <time>2019-05-29T13:27:57.573Z</time>
      </trkpt>
      <trkpt lat="44.64853" lon="3.23983">
        <ele>1125</ele>
        <time>2019-05-29T13:28:01.605Z</time>
      </trkpt>
      <trkpt lat="44.6485" lon="3.23976">
        <ele>1125</ele>
        <time>2019-05-29T13:28:06.574Z</time>
      </trkpt>
      <trkpt lat="44.64849" lon="3.23969">
        <ele>1125</ele>
        <time>2019-05-29T13:28:11.592Z</time>
      </trkpt>
      <trkpt lat="44.64846" lon="3.23966">
        <ele>1124</ele>
        <time>2019-05-29T13:28:16.598Z</time>
      </trkpt>
      <trkpt lat="44.6484" lon="3.23961">
        <ele>1124</ele>
        <time>2019-05-29T13:28:21.565Z</time>
      </trkpt>
      <trkpt lat="44.64839" lon="3.23953">
        <ele>1124</ele>
        <time>2019-05-29T13:28:25.580Z</time>
      </trkpt>
      <trkpt lat="44.64837" lon="3.23948">
        <ele>1124</ele>
        <time>2019-05-29T13:28:30.571Z</time>
      </trkpt>
      <trkpt lat="44.64834" lon="3.23943">
        <ele>1124</ele>
        <time>2019-05-29T13:28:35.566Z</time>
      </trkpt>
      <trkpt lat="44.6483" lon="3.23936">
        <ele>1124</ele>
        <time>2019-05-29T13:28:40.576Z</time>
      </trkpt>
      <trkpt lat="44.64826" lon="3.23931">
        <ele>1126</ele>
        <time>2019-05-29T13:28:45.574Z</time>
      </trkpt>
      <trkpt lat="44.64825" lon="3.23925">
        <ele>1126</ele>
        <time>2019-05-29T13:28:49.599Z</time>
      </trkpt>
      <trkpt lat="44.64821" lon="3.2392">
        <ele>1126</ele>
        <time>2019-05-29T13:28:54.562Z</time>
      </trkpt>
      <trkpt lat="44.64819" lon="3.23913">
        <ele>1124</ele>
        <time>2019-05-29T13:28:59.575Z</time>
      </trkpt>
      <trkpt lat="44.64818" lon="3.23908">
        <ele>1124</ele>
        <time>2019-05-29T13:29:04.570Z</time>
      </trkpt>
      <trkpt lat="44.64816" lon="3.23904">
        <ele>1124</ele>
        <time>2019-05-29T13:29:09.570Z</time>
      </trkpt>
      <trkpt lat="44.64815" lon="3.239">
        <ele>1125</ele>
        <time>2019-05-29T13:29:13.573Z</time>
      </trkpt>
      <trkpt lat="44.64814" lon="3.23895">
        <ele>1125</ele>
        <time>2019-05-29T13:29:17.604Z</time>
      </trkpt>
      <trkpt lat="44.64813" lon="3.23889">
        <ele>1125</ele>
        <time>2019-05-29T13:29:22.571Z</time>
      </trkpt>
      <trkpt lat="44.64813" lon="3.23885">
        <ele>1125</ele>
        <time>2019-05-29T13:29:26.605Z</time>
      </trkpt>
      <trkpt lat="44.64811" lon="3.23878">
        <ele>1125</ele>
        <time>2019-05-29T13:29:31.573Z</time>
      </trkpt>
      <trkpt lat="44.64811" lon="3.23872">
        <ele>1126</ele>
        <time>2019-05-29T13:29:36.573Z</time>
      </trkpt>
      <trkpt lat="44.64809" lon="3.23865">
        <ele>1126</ele>
        <time>2019-05-29T13:29:41.568Z</time>
      </trkpt>
      <trkpt lat="44.64808" lon="3.23856">
        <ele>1126</ele>
        <time>2019-05-29T13:29:46.604Z</time>
      </trkpt>
      <trkpt lat="44.64806" lon="3.23848">
        <ele>1126</ele>
        <time>2019-05-29T13:29:51.576Z</time>
      </trkpt>
      <trkpt lat="44.64805" lon="3.23841">
        <ele>1125</ele>
        <time>2019-05-29T13:29:56.572Z</time>
      </trkpt>
      <trkpt lat="44.64806" lon="3.23836">
        <ele>1125</ele>
        <time>2019-05-29T13:30:00.570Z</time>
      </trkpt>
      <trkpt lat="44.64808" lon="3.23831">
        <ele>1125</ele>
        <time>2019-05-29T13:30:04.573Z</time>
      </trkpt>
      <trkpt lat="44.64807" lon="3.23825">
        <ele>1125</ele>
        <time>2019-05-29T13:30:09.573Z</time>
      </trkpt>
      <trkpt lat="44.64808" lon="3.23817">
        <ele>1124</ele>
        <time>2019-05-29T13:30:14.572Z</time>
      </trkpt>
      <trkpt lat="44.64805" lon="3.2381">
        <ele>1124</ele>
        <time>2019-05-29T13:30:19.574Z</time>
      </trkpt>
      <trkpt lat="44.64801" lon="3.23804">
        <ele>1124</ele>
        <time>2019-05-29T13:30:24.571Z</time>
      </trkpt>
      <trkpt lat="44.64798" lon="3.23799">
        <ele>1124</ele>
        <time>2019-05-29T13:30:28.576Z</time>
      </trkpt>
      <trkpt lat="44.64795" lon="3.23793">
        <ele>1124</ele>
        <time>2019-05-29T13:30:33.572Z</time>
      </trkpt>
      <trkpt lat="44.64789" lon="3.23789">
        <ele>1117</ele>
        <time>2019-05-29T13:30:37.575Z</time>
      </trkpt>
      <trkpt lat="44.64785" lon="3.23785">
        <ele>1117</ele>
        <time>2019-05-29T13:30:42.572Z</time>
      </trkpt>
      <trkpt lat="44.64784" lon="3.23784">
        <ele>1117</ele>
        <time>2019-05-29T13:30:47.549Z</time>
      </trkpt>
      <trkpt lat="44.64781" lon="3.23781">
        <ele>1117</ele>
        <time>2019-05-29T13:30:51.556Z</time>
      </trkpt>
      <trkpt lat="44.6478" lon="3.2378">
        <ele>1117</ele>
        <time>2019-05-29T13:30:56.561Z</time>
      </trkpt>
      <trkpt lat="44.64776" lon="3.23777">
        <ele>1117</ele>
        <time>2019-05-29T13:31:15.554Z</time>
      </trkpt>
      <trkpt lat="44.6477" lon="3.23771">
        <ele>1117</ele>
        <time>2019-05-29T13:31:20.552Z</time>
      </trkpt>
      <trkpt lat="44.64767" lon="3.23766">
        <ele>1117</ele>
        <time>2019-05-29T13:31:25.549Z</time>
      </trkpt>
      <trkpt lat="44.64762" lon="3.23761">
        <ele>1113</ele>
        <time>2019-05-29T13:31:30.551Z</time>
      </trkpt>
      <trkpt lat="44.64759" lon="3.23757">
        <ele>1113</ele>
        <time>2019-05-29T13:31:35.554Z</time>
      </trkpt>
      <trkpt lat="44.64755" lon="3.23753">
        <ele>1113</ele>
        <time>2019-05-29T13:31:39.553Z</time>
      </trkpt>
      <trkpt lat="44.6475" lon="3.23748">
        <ele>1113</ele>
        <time>2019-05-29T13:31:44.552Z</time>
      </trkpt>
      <trkpt lat="44.64745" lon="3.23743">
        <ele>1113</ele>
        <time>2019-05-29T13:31:49.553Z</time>
      </trkpt>
      <trkpt lat="44.64741" lon="3.23739">
        <ele>1113</ele>
        <time>2019-05-29T13:31:54.551Z</time>
      </trkpt>
      <trkpt lat="44.6474" lon="3.23736">
        <ele>1111</ele>
        <time>2019-05-29T13:31:59.563Z</time>
      </trkpt>
      <trkpt lat="44.6474" lon="3.23736">
        <ele>1111</ele>
        <time>2019-05-29T13:32:04.552Z</time>
      </trkpt>
      <trkpt lat="44.64738" lon="3.23734">
        <ele>1111</ele>
        <time>2019-05-29T13:32:09.551Z</time>
      </trkpt>
      <trkpt lat="44.64736" lon="3.23734">
        <ele>1110</ele>
        <time>2019-05-29T13:32:32.553Z</time>
      </trkpt>
      <trkpt lat="44.64731" lon="3.2373">
        <ele>1110</ele>
        <time>2019-05-29T13:32:37.556Z</time>
      </trkpt>
      <trkpt lat="44.64728" lon="3.23725">
        <ele>1110</ele>
        <time>2019-05-29T13:32:41.568Z</time>
      </trkpt>
      <trkpt lat="44.64725" lon="3.23722">
        <ele>1110</ele>
        <time>2019-05-29T13:32:45.574Z</time>
      </trkpt>
      <trkpt lat="44.64721" lon="3.23722">
        <ele>1110</ele>
        <time>2019-05-29T13:32:50.553Z</time>
      </trkpt>
      <trkpt lat="44.64719" lon="3.23721">
        <ele>1110</ele>
        <time>2019-05-29T13:32:54.555Z</time>
      </trkpt>
      <trkpt lat="44.64719" lon="3.23721">
        <ele>1110</ele>
        <time>2019-05-29T13:32:59.556Z</time>
      </trkpt>
      <trkpt lat="44.64719" lon="3.23721">
        <ele>1110</ele>
        <time>2019-05-29T13:33:04.553Z</time>
      </trkpt>
      <trkpt lat="44.64715" lon="3.23717">
        <ele>1110</ele>
        <time>2019-05-29T13:33:08.571Z</time>
      </trkpt>
      <trkpt lat="44.6471" lon="3.23711">
        <ele>1110</ele>
        <time>2019-05-29T13:33:13.568Z</time>
      </trkpt>
      <trkpt lat="44.64709" lon="3.2371">
        <ele>1110</ele>
        <time>2019-05-29T13:33:18.580Z</time>
      </trkpt>
      <trkpt lat="44.64706" lon="3.23707">
        <ele>1105</ele>
        <time>2019-05-29T13:33:23.560Z</time>
      </trkpt>
      <trkpt lat="44.64702" lon="3.23705">
        <ele>1105</ele>
        <time>2019-05-29T13:33:28.552Z</time>
      </trkpt>
      <trkpt lat="44.647" lon="3.23703">
        <ele>1105</ele>
        <time>2019-05-29T13:33:32.570Z</time>
      </trkpt>
      <trkpt lat="44.64698" lon="3.23698">
        <ele>1105</ele>
        <time>2019-05-29T13:33:37.582Z</time>
      </trkpt>
      <trkpt lat="44.64694" lon="3.23692">
        <ele>1105</ele>
        <time>2019-05-29T13:33:42.553Z</time>
      </trkpt>
      <trkpt lat="44.6469" lon="3.23686">
        <ele>1105</ele>
        <time>2019-05-29T13:33:47.551Z</time>
      </trkpt>
      <trkpt lat="44.64688" lon="3.2368">
        <ele>1103</ele>
        <time>2019-05-29T13:33:52.553Z</time>
      </trkpt>
      <trkpt lat="44.64686" lon="3.23678">
        <ele>1103</ele>
        <time>2019-05-29T13:33:56.566Z</time>
      </trkpt>
      <trkpt lat="44.64682" lon="3.23675">
        <ele>1103</ele>
        <time>2019-05-29T13:34:00.572Z</time>
      </trkpt>
      <trkpt lat="44.64677" lon="3.2367">
        <ele>1099</ele>
        <time>2019-05-29T13:34:05.568Z</time>
      </trkpt>
      <trkpt lat="44.64672" lon="3.23663">
        <ele>1099</ele>
        <time>2019-05-29T13:34:10.575Z</time>
      </trkpt>
      <trkpt lat="44.64669" lon="3.2366">
        <ele>1099</ele>
        <time>2019-05-29T13:34:14.602Z</time>
      </trkpt>
      <trkpt lat="44.64666" lon="3.23654">
        <ele>1099</ele>
        <time>2019-05-29T13:34:19.608Z</time>
      </trkpt>
      <trkpt lat="44.6466" lon="3.23648">
        <ele>1098</ele>
        <time>2019-05-29T13:34:24.571Z</time>
      </trkpt>
      <trkpt lat="44.64657" lon="3.23645">
        <ele>1098</ele>
        <time>2019-05-29T13:34:29.550Z</time>
      </trkpt>
      <trkpt lat="44.64656" lon="3.23643">
        <ele>1098</ele>
        <time>2019-05-29T13:34:43.553Z</time>
      </trkpt>
      <trkpt lat="44.64652" lon="3.2364">
        <ele>1096</ele>
        <time>2019-05-29T13:34:48.552Z</time>
      </trkpt>
      <trkpt lat="44.64648" lon="3.23635">
        <ele>1096</ele>
        <time>2019-05-29T13:34:52.549Z</time>
      </trkpt>
      <trkpt lat="44.64646" lon="3.23629">
        <ele>1096</ele>
        <time>2019-05-29T13:34:57.566Z</time>
      </trkpt>
      <trkpt lat="44.64642" lon="3.23621">
        <ele>1097</ele>
        <time>2019-05-29T13:35:01.576Z</time>
      </trkpt>
      <trkpt lat="44.6464" lon="3.23616">
        <ele>1097</ele>
        <time>2019-05-29T13:35:06.577Z</time>
      </trkpt>
      <trkpt lat="44.64636" lon="3.23612">
        <ele>1097</ele>
        <time>2019-05-29T13:35:10.605Z</time>
      </trkpt>
      <trkpt lat="44.6463" lon="3.23607">
        <ele>1097</ele>
        <time>2019-05-29T13:35:15.570Z</time>
      </trkpt>
      <trkpt lat="44.6463" lon="3.23604">
        <ele>1097</ele>
        <time>2019-05-29T13:35:19.604Z</time>
      </trkpt>
      <trkpt lat="44.64627" lon="3.23602">
        <ele>1097</ele>
        <time>2019-05-29T13:35:24.604Z</time>
      </trkpt>
      <trkpt lat="44.64623" lon="3.23596">
        <ele>1097</ele>
        <time>2019-05-29T13:35:29.571Z</time>
      </trkpt>
      <trkpt lat="44.64619" lon="3.23591">
        <ele>1097</ele>
        <time>2019-05-29T13:35:34.550Z</time>
      </trkpt>
      <trkpt lat="44.64617" lon="3.23586">
        <ele>1097</ele>
        <time>2019-05-29T13:35:38.568Z</time>
      </trkpt>
      <trkpt lat="44.64613" lon="3.23583">
        <ele>1097</ele>
        <time>2019-05-29T13:35:43.598Z</time>
      </trkpt>
      <trkpt lat="44.64612" lon="3.23577">
        <ele>1097</ele>
        <time>2019-05-29T13:35:48.570Z</time>
      </trkpt>
      <trkpt lat="44.64611" lon="3.2357">
        <ele>1097</ele>
        <time>2019-05-29T13:35:53.584Z</time>
      </trkpt>
      <trkpt lat="44.6461" lon="3.23565">
        <ele>1099</ele>
        <time>2019-05-29T13:35:58.573Z</time>
      </trkpt>
      <trkpt lat="44.64608" lon="3.23556">
        <ele>1099</ele>
        <time>2019-05-29T13:36:03.606Z</time>
      </trkpt>
      <trkpt lat="44.64605" lon="3.2355">
        <ele>1099</ele>
        <time>2019-05-29T13:36:08.600Z</time>
      </trkpt>
      <trkpt lat="44.64604" lon="3.23543">
        <ele>1099</ele>
        <time>2019-05-29T13:36:13.570Z</time>
      </trkpt>
      <trkpt lat="44.64601" lon="3.23535">
        <ele>1099</ele>
        <time>2019-05-29T13:36:18.591Z</time>
      </trkpt>
      <trkpt lat="44.64599" lon="3.23528">
        <ele>1099</ele>
        <time>2019-05-29T13:36:23.570Z</time>
      </trkpt>
      <trkpt lat="44.64597" lon="3.23521">
        <ele>1095</ele>
        <time>2019-05-29T13:36:28.574Z</time>
      </trkpt>
      <trkpt lat="44.64595" lon="3.23516">
        <ele>1095</ele>
        <time>2019-05-29T13:36:33.569Z</time>
      </trkpt>
      <trkpt lat="44.6459" lon="3.23509">
        <ele>1095</ele>
        <time>2019-05-29T13:36:38.581Z</time>
      </trkpt>
      <trkpt lat="44.64587" lon="3.23503">
        <ele>1095</ele>
        <time>2019-05-29T13:36:43.566Z</time>
      </trkpt>
      <trkpt lat="44.64583" lon="3.23498">
        <ele>1095</ele>
        <time>2019-05-29T13:36:47.576Z</time>
      </trkpt>
      <trkpt lat="44.64577" lon="3.23492">
        <ele>1095</ele>
        <time>2019-05-29T13:36:52.576Z</time>
      </trkpt>
      <trkpt lat="44.64575" lon="3.23485">
        <ele>1093</ele>
        <time>2019-05-29T13:36:57.600Z</time>
      </trkpt>
      <trkpt lat="44.64569" lon="3.2348">
        <ele>1093</ele>
        <time>2019-05-29T13:37:02.575Z</time>
      </trkpt>
      <trkpt lat="44.64564" lon="3.23473">
        <ele>1093</ele>
        <time>2019-05-29T13:37:07.582Z</time>
      </trkpt>
      <trkpt lat="44.64559" lon="3.23467">
        <ele>1093</ele>
        <time>2019-05-29T13:37:12.568Z</time>
      </trkpt>
      <trkpt lat="44.64557" lon="3.23463">
        <ele>1093</ele>
        <time>2019-05-29T13:37:16.572Z</time>
      </trkpt>
      <trkpt lat="44.64557" lon="3.23463">
        <ele>1093</ele>
        <time>2019-05-29T13:37:20.596Z</time>
      </trkpt>
      <trkpt lat="44.64555" lon="3.23458">
        <ele>1094</ele>
        <time>2019-05-29T13:37:24.607Z</time>
      </trkpt>
      <trkpt lat="44.64554" lon="3.23457">
        <ele>1094</ele>
        <time>2019-05-29T13:37:29.571Z</time>
      </trkpt>
      <trkpt lat="44.64549" lon="3.23451">
        <ele>1094</ele>
        <time>2019-05-29T13:37:34.552Z</time>
      </trkpt>
      <trkpt lat="44.64545" lon="3.23446">
        <ele>1094</ele>
        <time>2019-05-29T13:37:38.621Z</time>
      </trkpt>
      <trkpt lat="44.64539" lon="3.2344">
        <ele>1094</ele>
        <time>2019-05-29T13:37:43.574Z</time>
      </trkpt>
      <trkpt lat="44.64535" lon="3.23433">
        <ele>1094</ele>
        <time>2019-05-29T13:37:48.597Z</time>
      </trkpt>
      <trkpt lat="44.64531" lon="3.23422">
        <ele>1095</ele>
        <time>2019-05-29T13:37:53.609Z</time>
      </trkpt>
      <trkpt lat="44.64527" lon="3.23413">
        <ele>1095</ele>
        <time>2019-05-29T13:37:58.569Z</time>
      </trkpt>
      <trkpt lat="44.64524" lon="3.23408">
        <ele>1095</ele>
        <time>2019-05-29T13:38:02.572Z</time>
      </trkpt>
      <trkpt lat="44.64521" lon="3.23403">
        <ele>1095</ele>
        <time>2019-05-29T13:38:07.600Z</time>
      </trkpt>
      <trkpt lat="44.64516" lon="3.23399">
        <ele>1095</ele>
        <time>2019-05-29T13:38:12.567Z</time>
      </trkpt>
      <trkpt lat="44.64513" lon="3.23394">
        <ele>1095</ele>
        <time>2019-05-29T13:38:16.572Z</time>
      </trkpt>
      <trkpt lat="44.64508" lon="3.23385">
        <ele>1095</ele>
        <time>2019-05-29T13:38:20.600Z</time>
      </trkpt>
      <trkpt lat="44.64503" lon="3.23379">
        <ele>1095</ele>
        <time>2019-05-29T13:38:25.574Z</time>
      </trkpt>
      <trkpt lat="44.64497" lon="3.23375">
        <ele>1095</ele>
        <time>2019-05-29T13:38:30.578Z</time>
      </trkpt>
      <trkpt lat="44.64495" lon="3.23368">
        <ele>1095</ele>
        <time>2019-05-29T13:38:35.578Z</time>
      </trkpt>
      <trkpt lat="44.64493" lon="3.23362">
        <ele>1095</ele>
        <time>2019-05-29T13:38:40.574Z</time>
      </trkpt>
      <trkpt lat="44.64489" lon="3.23359">
        <ele>1095</ele>
        <time>2019-05-29T13:38:45.568Z</time>
      </trkpt>
      <trkpt lat="44.64487" lon="3.23352">
        <ele>1095</ele>
        <time>2019-05-29T13:38:50.550Z</time>
      </trkpt>
      <trkpt lat="44.64485" lon="3.23346">
        <ele>1093</ele>
        <time>2019-05-29T13:38:54.572Z</time>
      </trkpt>
      <trkpt lat="44.64482" lon="3.23337">
        <ele>1093</ele>
        <time>2019-05-29T13:38:59.559Z</time>
      </trkpt>
      <trkpt lat="44.64481" lon="3.23329">
        <ele>1093</ele>
        <time>2019-05-29T13:39:03.569Z</time>
      </trkpt>
      <trkpt lat="44.64481" lon="3.23322">
        <ele>1093</ele>
        <time>2019-05-29T13:39:08.571Z</time>
      </trkpt>
      <trkpt lat="44.6448" lon="3.23317">
        <ele>1092</ele>
        <time>2019-05-29T13:39:13.610Z</time>
      </trkpt>
      <trkpt lat="44.64478" lon="3.23313">
        <ele>1092</ele>
        <time>2019-05-29T13:39:18.573Z</time>
      </trkpt>
      <trkpt lat="44.64478" lon="3.23307">
        <ele>1092</ele>
        <time>2019-05-29T13:39:23.619Z</time>
      </trkpt>
      <trkpt lat="44.64476" lon="3.233">
        <ele>1092</ele>
        <time>2019-05-29T13:39:28.569Z</time>
      </trkpt>
      <trkpt lat="44.64476" lon="3.2329">
        <ele>1092</ele>
        <time>2019-05-29T13:39:33.585Z</time>
      </trkpt>
      <trkpt lat="44.64476" lon="3.23281">
        <ele>1092</ele>
        <time>2019-05-29T13:39:38.569Z</time>
      </trkpt>
      <trkpt lat="44.64475" lon="3.23278">
        <ele>1092</ele>
        <time>2019-05-29T13:39:42.586Z</time>
      </trkpt>
      <trkpt lat="44.64474" lon="3.23275">
        <ele>1092</ele>
        <time>2019-05-29T13:39:47.570Z</time>
      </trkpt>
      <trkpt lat="44.64473" lon="3.23269">
        <ele>1092</ele>
        <time>2019-05-29T13:39:51.584Z</time>
      </trkpt>
      <trkpt lat="44.6447" lon="3.23265">
        <ele>1092</ele>
        <time>2019-05-29T13:39:56.577Z</time>
      </trkpt>
      <trkpt lat="44.64468" lon="3.2326">
        <ele>1093</ele>
        <time>2019-05-29T13:40:01.572Z</time>
      </trkpt>
      <trkpt lat="44.64456" lon="3.23251">
        <ele>1095</ele>
        <time>2019-05-29T13:40:06.571Z</time>
      </trkpt>
      <trkpt lat="44.64444" lon="3.2325">
        <ele>1095</ele>
        <time>2019-05-29T13:40:10.577Z</time>
      </trkpt>
      <trkpt lat="44.64439" lon="3.23259">
        <ele>1095</ele>
        <time>2019-05-29T13:40:15.572Z</time>
      </trkpt>
      <trkpt lat="44.64433" lon="3.23266">
        <ele>1094</ele>
        <time>2019-05-29T13:40:20.569Z</time>
      </trkpt>
      <trkpt lat="44.64429" lon="3.23274">
        <ele>1093</ele>
        <time>2019-05-29T13:40:25.572Z</time>
      </trkpt>
      <trkpt lat="44.64426" lon="3.23287">
        <ele>1093</ele>
        <time>2019-05-29T13:40:30.569Z</time>
      </trkpt>
      <trkpt lat="44.64425" lon="3.2329">
        <ele>1093</ele>
        <time>2019-05-29T13:40:34.602Z</time>
      </trkpt>
      <trkpt lat="44.64423" lon="3.23297">
        <ele>1092</ele>
        <time>2019-05-29T13:40:39.572Z</time>
      </trkpt>
      <trkpt lat="44.64421" lon="3.23301">
        <ele>1092</ele>
        <time>2019-05-29T13:40:43.578Z</time>
      </trkpt>
      <trkpt lat="44.64419" lon="3.23307">
        <ele>1092</ele>
        <time>2019-05-29T13:40:48.572Z</time>
      </trkpt>
      <trkpt lat="44.64415" lon="3.23315">
        <ele>1092</ele>
        <time>2019-05-29T13:40:53.572Z</time>
      </trkpt>
      <trkpt lat="44.64414" lon="3.23322">
        <ele>1092</ele>
        <time>2019-05-29T13:40:57.573Z</time>
      </trkpt>
      <trkpt lat="44.64411" lon="3.23325">
        <ele>1092</ele>
        <time>2019-05-29T13:41:01.574Z</time>
      </trkpt>
      <trkpt lat="44.64409" lon="3.23332">
        <ele>1092</ele>
        <time>2019-05-29T13:41:06.573Z</time>
      </trkpt>
      <trkpt lat="44.64408" lon="3.23334">
        <ele>1092</ele>
        <time>2019-05-29T13:41:11.606Z</time>
      </trkpt>
      <trkpt lat="44.64405" lon="3.23344">
        <ele>1092</ele>
        <time>2019-05-29T13:41:16.569Z</time>
      </trkpt>
      <trkpt lat="44.64404" lon="3.23354">
        <ele>1091</ele>
        <time>2019-05-29T13:41:21.599Z</time>
      </trkpt>
      <trkpt lat="44.64405" lon="3.23366">
        <ele>1091</ele>
        <time>2019-05-29T13:41:26.573Z</time>
      </trkpt>
      <trkpt lat="44.64407" lon="3.23387">
        <ele>1091</ele>
        <time>2019-05-29T13:41:31.574Z</time>
      </trkpt>
      <trkpt lat="44.64411" lon="3.23404">
        <ele>1091</ele>
        <time>2019-05-29T13:41:36.568Z</time>
      </trkpt>
      <trkpt lat="44.64413" lon="3.23413">
        <ele>1091</ele>
        <time>2019-05-29T13:41:41.569Z</time>
      </trkpt>
      <trkpt lat="44.64417" lon="3.23418">
        <ele>1091</ele>
        <time>2019-05-29T13:41:46.597Z</time>
      </trkpt>
      <trkpt lat="44.6442" lon="3.23423">
        <ele>1091</ele>
        <time>2019-05-29T13:41:51.563Z</time>
      </trkpt>
      <trkpt lat="44.64421" lon="3.23428">
        <ele>1091</ele>
        <time>2019-05-29T13:41:55.600Z</time>
      </trkpt>
      <trkpt lat="44.64418" lon="3.23435">
        <ele>1090</ele>
        <time>2019-05-29T13:42:00.569Z</time>
      </trkpt>
      <trkpt lat="44.64415" lon="3.23442">
        <ele>1090</ele>
        <time>2019-05-29T13:42:05.554Z</time>
      </trkpt>
      <trkpt lat="44.64413" lon="3.23445">
        <ele>1090</ele>
        <time>2019-05-29T13:42:09.575Z</time>
      </trkpt>
      <trkpt lat="44.64411" lon="3.23449">
        <ele>1090</ele>
        <time>2019-05-29T13:42:13.576Z</time>
      </trkpt>
      <trkpt lat="44.64411" lon="3.23454">
        <ele>1090</ele>
        <time>2019-05-29T13:42:18.570Z</time>
      </trkpt>
      <trkpt lat="44.6441" lon="3.23458">
        <ele>1090</ele>
        <time>2019-05-29T13:42:22.600Z</time>
      </trkpt>
      <trkpt lat="44.64409" lon="3.23464">
        <ele>1089</ele>
        <time>2019-05-29T13:42:26.609Z</time>
      </trkpt>
      <trkpt lat="44.64409" lon="3.23471">
        <ele>1089</ele>
        <time>2019-05-29T13:42:31.571Z</time>
      </trkpt>
      <trkpt lat="44.64407" lon="3.23479">
        <ele>1089</ele>
        <time>2019-05-29T13:42:36.576Z</time>
      </trkpt>
      <trkpt lat="44.64406" lon="3.23487">
        <ele>1086</ele>
        <time>2019-05-29T13:42:41.575Z</time>
      </trkpt>
      <trkpt lat="44.64405" lon="3.23494">
        <ele>1086</ele>
        <time>2019-05-29T13:42:45.606Z</time>
      </trkpt>
      <trkpt lat="44.64404" lon="3.23502">
        <ele>1086</ele>
        <time>2019-05-29T13:42:50.567Z</time>
      </trkpt>
      <trkpt lat="44.64403" lon="3.23509">
        <ele>1083</ele>
        <time>2019-05-29T13:42:54.601Z</time>
      </trkpt>
      <trkpt lat="44.64403" lon="3.23517">
        <ele>1081</ele>
        <time>2019-05-29T13:42:59.569Z</time>
      </trkpt>
      <trkpt lat="44.64401" lon="3.23524">
        <ele>1081</ele>
        <time>2019-05-29T13:43:03.569Z</time>
      </trkpt>
      <trkpt lat="44.644" lon="3.23531">
        <ele>1081</ele>
        <time>2019-05-29T13:43:07.575Z</time>
      </trkpt>
      <trkpt lat="44.64399" lon="3.23538">
        <ele>1081</ele>
        <time>2019-05-29T13:43:12.569Z</time>
      </trkpt>
      <trkpt lat="44.64396" lon="3.23544">
        <ele>1080</ele>
        <time>2019-05-29T13:43:17.599Z</time>
      </trkpt>
      <trkpt lat="44.64392" lon="3.23548">
        <ele>1080</ele>
        <time>2019-05-29T13:43:22.584Z</time>
      </trkpt>
      <trkpt lat="44.64388" lon="3.23552">
        <ele>1080</ele>
        <time>2019-05-29T13:43:27.585Z</time>
      </trkpt>
      <trkpt lat="44.64385" lon="3.23554">
        <ele>1080</ele>
        <time>2019-05-29T13:43:31.573Z</time>
      </trkpt>
      <trkpt lat="44.6438" lon="3.23557">
        <ele>1080</ele>
        <time>2019-05-29T13:43:36.577Z</time>
      </trkpt>
      <trkpt lat="44.64377" lon="3.23559">
        <ele>1080</ele>
        <time>2019-05-29T13:43:40.620Z</time>
      </trkpt>
      <trkpt lat="44.64371" lon="3.23563">
        <ele>1080</ele>
        <time>2019-05-29T13:43:45.569Z</time>
      </trkpt>
      <trkpt lat="44.64367" lon="3.23565">
        <ele>1080</ele>
        <time>2019-05-29T13:43:49.570Z</time>
      </trkpt>
      <trkpt lat="44.64362" lon="3.23571">
        <ele>1081</ele>
        <time>2019-05-29T13:43:54.569Z</time>
      </trkpt>
      <trkpt lat="44.6436" lon="3.23577">
        <ele>1081</ele>
        <time>2019-05-29T13:43:58.602Z</time>
      </trkpt>
      <trkpt lat="44.64359" lon="3.23589">
        <ele>1081</ele>
        <time>2019-05-29T13:44:03.585Z</time>
      </trkpt>
      <trkpt lat="44.6436" lon="3.236">
        <ele>1082</ele>
        <time>2019-05-29T13:44:08.569Z</time>
      </trkpt>
      <trkpt lat="44.64359" lon="3.23607">
        <ele>1082</ele>
        <time>2019-05-29T13:44:13.568Z</time>
      </trkpt>
      <trkpt lat="44.64358" lon="3.23615">
        <ele>1082</ele>
        <time>2019-05-29T13:44:18.562Z</time>
      </trkpt>
      <trkpt lat="44.64357" lon="3.23619">
        <ele>1082</ele>
        <time>2019-05-29T13:44:22.605Z</time>
      </trkpt>
      <trkpt lat="44.64358" lon="3.23627">
        <ele>1085</ele>
        <time>2019-05-29T13:44:27.592Z</time>
      </trkpt>
      <trkpt lat="44.64359" lon="3.23633">
        <ele>1085</ele>
        <time>2019-05-29T13:44:32.561Z</time>
      </trkpt>
      <trkpt lat="44.64362" lon="3.23637">
        <ele>1085</ele>
        <time>2019-05-29T13:44:37.556Z</time>
      </trkpt>
      <trkpt lat="44.64366" lon="3.23639">
        <ele>1085</ele>
        <time>2019-05-29T13:44:41.578Z</time>
      </trkpt>
      <trkpt lat="44.64367" lon="3.23639">
        <ele>1085</ele>
        <time>2019-05-29T13:44:46.591Z</time>
      </trkpt>
      <trkpt lat="44.64368" lon="3.23639">
        <ele>1085</ele>
        <time>2019-05-29T13:44:51.592Z</time>
      </trkpt>
      <trkpt lat="44.6437" lon="3.23639">
        <ele>1085</ele>
        <time>2019-05-29T13:44:56.591Z</time>
      </trkpt>
      <trkpt lat="44.64375" lon="3.23644">
        <ele>1083</ele>
        <time>2019-05-29T13:45:01.594Z</time>
      </trkpt>
      <trkpt lat="44.64379" lon="3.23652">
        <ele>1083</ele>
        <time>2019-05-29T13:45:06.558Z</time>
      </trkpt>
      <trkpt lat="44.64385" lon="3.23651">
        <ele>1083</ele>
        <time>2019-05-29T13:45:11.565Z</time>
      </trkpt>
      <trkpt lat="44.64392" lon="3.23652">
        <ele>1083</ele>
        <time>2019-05-29T13:45:16.565Z</time>
      </trkpt>
      <trkpt lat="44.64397" lon="3.23653">
        <ele>1083</ele>
        <time>2019-05-29T13:45:21.591Z</time>
      </trkpt>
      <trkpt lat="44.64402" lon="3.23653">
        <ele>1083</ele>
        <time>2019-05-29T13:45:26.557Z</time>
      </trkpt>
      <trkpt lat="44.64404" lon="3.23652">
        <ele>1087</ele>
        <time>2019-05-29T13:45:30.590Z</time>
      </trkpt>
    </trkseg>
  </trk>
</gpx>